<?xml version="1.0" encoding="UTF-8"?>
<gpx creator="Garmin Connect" version="1.1"
  xsi:schemaLocation="http://www.topografix.com/GPX/1/1 http://www.topografix.com/GPX/11.xsd"
  xmlns:ns3="http://www.garmin.com/xmlschemas/TrackPointExtension/v1"
  xmlns="http://www.topografix.com/GPX/1/1"
  xmlns:xsi="http://www.w3.org/2001/XMLSchema-instance" xmlns:ns2="http://www.garmin.com/xmlschemas/GpxExtensions/v3">
  <metadata>
    <name>MTB SPRINT BIELY KRIZ</name>
    <link href="connect.garmin.com">
      <text>Garmin Connect</text>
    </link>
    <time>2024-10-10T10:07:47.000Z</time>
  </metadata>
  <trk>
    <name>MTB SPRINT BIELY KRIZ</name>
    <trkseg>
      <trkpt lat="48.279640981927514" lon="17.048529954627156">
        <ele>192.85</ele>
        <time>2024-10-10T10:07:47.000Z</time>
      </trkpt>
      <trkpt lat="48.27987131662667" lon="17.04885123297572">
        <ele>194.67</ele>
        <time>2024-10-10T10:07:47.006Z</time>
      </trkpt>
      <trkpt lat="48.280101735144854" lon="17.049172511324286">
        <ele>195.77</ele>
        <time>2024-10-10T10:07:47.019Z</time>
      </trkpt>
      <trkpt lat="48.28020131215453" lon="17.04931139945984">
        <ele>196.5</ele>
        <time>2024-10-10T10:07:47.034Z</time>
      </trkpt>
      <trkpt lat="48.279988998547196" lon="17.04965941607952">
        <ele>198.01</ele>
        <time>2024-10-10T10:07:47.056Z</time>
      </trkpt>
      <trkpt lat="48.27988715842366" lon="17.0498263835907">
        <ele>198.41</ele>
        <time>2024-10-10T10:07:47.081Z</time>
      </trkpt>
      <trkpt lat="48.27962472103536" lon="17.050086725503206">
        <ele>198.51</ele>
        <time>2024-10-10T10:07:47.112Z</time>
      </trkpt>
      <trkpt lat="48.27936228364706" lon="17.050347151234746">
        <ele>197.77</ele>
        <time>2024-10-10T10:07:47.149Z</time>
      </trkpt>
      <trkpt lat="48.27909993007779" lon="17.050607493147254">
        <ele>197.71</ele>
        <time>2024-10-10T10:07:47.193Z</time>
      </trkpt>
      <trkpt lat="48.27898979187012" lon="17.050716876983643">
        <ele>197.74</ele>
        <time>2024-10-10T10:07:47.239Z</time>
      </trkpt>
      <trkpt lat="48.27890396118164" lon="17.050856351852417">
        <ele>195.23</ele>
        <time>2024-10-10T10:07:47.288Z</time>
      </trkpt>
      <trkpt lat="48.278818130493164" lon="17.050877809524536">
        <ele>195.77</ele>
        <time>2024-10-10T10:07:47.338Z</time>
      </trkpt>
      <trkpt lat="48.27875375747681" lon="17.050867080688477">
        <ele>196.43</ele>
        <time>2024-10-10T10:07:47.390Z</time>
      </trkpt>
      <trkpt lat="48.278492745012045" lon="17.05081695690751">
        <ele>197.29</ele>
        <time>2024-10-10T10:07:47.447Z</time>
      </trkpt>
      <trkpt lat="48.27823173254728" lon="17.050766916945577">
        <ele>198.1</ele>
        <time>2024-10-10T10:07:47.509Z</time>
      </trkpt>
      <trkpt lat="48.27797063626349" lon="17.050716876983643">
        <ele>199.0</ele>
        <time>2024-10-10T10:07:47.577Z</time>
      </trkpt>
      <trkpt lat="48.27797055244446" lon="17.050716876983643">
        <ele>200.13</ele>
        <time>2024-10-10T10:07:47.645Z</time>
      </trkpt>
      <trkpt lat="48.27774533070624" lon="17.050684690475464">
        <ele>201.76</ele>
        <time>2024-10-10T10:07:47.717Z</time>
      </trkpt>
      <trkpt lat="48.27762731350958" lon="17.050673961639404">
        <ele>203.79</ele>
        <time>2024-10-10T10:07:47.791Z</time>
      </trkpt>
      <trkpt lat="48.27761650085449" lon="17.050673961639404">
        <ele>205.76</ele>
        <time>2024-10-10T10:07:47.866Z</time>
      </trkpt>
      <trkpt lat="48.277562856674194" lon="17.050663232803345">
        <ele>208.04</ele>
        <time>2024-10-10T10:07:47.942Z</time>
      </trkpt>
      <trkpt lat="48.277519941329956" lon="17.050652503967285">
        <ele>210.45</ele>
        <time>2024-10-10T10:07:48.019Z</time>
      </trkpt>
      <trkpt lat="48.27724099159241" lon="17.050834894180298">
        <ele>213.72</ele>
        <time>2024-10-10T10:07:48.102Z</time>
      </trkpt>
      <trkpt lat="48.27699674293399" lon="17.05107637681067">
        <ele>217.12</ele>
        <time>2024-10-10T10:07:48.191Z</time>
      </trkpt>
      <trkpt lat="48.27675249427557" lon="17.051317943260074">
        <ele>220.0</ele>
        <time>2024-10-10T10:07:48.285Z</time>
      </trkpt>
      <trkpt lat="48.27650824561715" lon="17.051559509709477">
        <ele>222.87</ele>
        <time>2024-10-10T10:07:48.385Z</time>
      </trkpt>
      <trkpt lat="48.276264667510986" lon="17.05180048942566">
        <ele>225.95</ele>
        <time>2024-10-10T10:07:48.491Z</time>
      </trkpt>
      <trkpt lat="48.276058388873935" lon="17.05214213579893">
        <ele>229.33</ele>
        <time>2024-10-10T10:07:48.603Z</time>
      </trkpt>
      <trkpt lat="48.27585211023688" lon="17.052483782172203">
        <ele>232.69</ele>
        <time>2024-10-10T10:07:48.721Z</time>
      </trkpt>
      <trkpt lat="48.27564583159983" lon="17.052825428545475">
        <ele>235.83</ele>
        <time>2024-10-10T10:07:48.846Z</time>
      </trkpt>
      <trkpt lat="48.27543955296278" lon="17.053167074918747">
        <ele>238.72</ele>
        <time>2024-10-10T10:07:48.977Z</time>
      </trkpt>
      <trkpt lat="48.27523469924927" lon="17.05350637435913">
        <ele>241.64</ele>
        <time>2024-10-10T10:07:49.114Z</time>
      </trkpt>
      <trkpt lat="48.27509522438049" lon="17.05381751060486">
        <ele>244.35</ele>
        <time>2024-10-10T10:07:49.256Z</time>
      </trkpt>
      <trkpt lat="48.275030851364136" lon="17.053978443145752">
        <ele>246.94</ele>
        <time>2024-10-10T10:07:49.400Z</time>
      </trkpt>
      <trkpt lat="48.274917947128415" lon="17.054354706779122">
        <ele>249.58</ele>
        <time>2024-10-10T10:07:49.550Z</time>
      </trkpt>
      <trkpt lat="48.274805545806885" lon="17.054729461669922">
        <ele>252.45</ele>
        <time>2024-10-10T10:07:49.705Z</time>
      </trkpt>
      <trkpt lat="48.274816274642944" lon="17.05510949715972">
        <ele>255.62</ele>
        <time>2024-10-10T10:07:49.865Z</time>
      </trkpt>
      <trkpt lat="48.274827003479004" lon="17.05548961646855">
        <ele>258.78</ele>
        <time>2024-10-10T10:07:50.031Z</time>
      </trkpt>
      <trkpt lat="48.27483773231506" lon="17.055866718292236">
        <ele>261.88</ele>
        <time>2024-10-10T10:07:50.202Z</time>
      </trkpt>
      <trkpt lat="48.27480537816882" lon="17.05618942156434">
        <ele>264.86</ele>
        <time>2024-10-10T10:07:50.377Z</time>
      </trkpt>
      <trkpt lat="48.274773359298706" lon="17.05651044845581">
        <ele>267.93</ele>
        <time>2024-10-10T10:07:50.556Z</time>
      </trkpt>
      <trkpt lat="48.274616450071335" lon="17.056830637156963">
        <ele>270.85</ele>
        <time>2024-10-10T10:07:50.741Z</time>
      </trkpt>
      <trkpt lat="48.274459540843964" lon="17.057150909677148">
        <ele>274.05</ele>
        <time>2024-10-10T10:07:50.931Z</time>
      </trkpt>
      <trkpt lat="48.27430263161659" lon="17.057471182197332">
        <ele>277.35</ele>
        <time>2024-10-10T10:07:51.126Z</time>
      </trkpt>
      <trkpt lat="48.27414572238922" lon="17.057791454717517">
        <ele>280.77</ele>
        <time>2024-10-10T10:07:51.327Z</time>
      </trkpt>
      <trkpt lat="48.27399015426636" lon="17.058109045028687">
        <ele>284.13</ele>
        <time>2024-10-10T10:07:51.533Z</time>
      </trkpt>
      <trkpt lat="48.27384321950376" lon="17.05849419347942">
        <ele>287.37</ele>
        <time>2024-10-10T10:07:51.745Z</time>
      </trkpt>
      <trkpt lat="48.27369628474116" lon="17.058879425749183">
        <ele>290.37</ele>
        <time>2024-10-10T10:07:51.963Z</time>
      </trkpt>
      <trkpt lat="48.2735494337976" lon="17.059264658018947">
        <ele>293.25</ele>
        <time>2024-10-10T10:07:52.187Z</time>
      </trkpt>
      <trkpt lat="48.273402499035" lon="17.05964989028871">
        <ele>295.81</ele>
        <time>2024-10-10T10:07:52.416Z</time>
      </trkpt>
      <trkpt lat="48.273255648091435" lon="17.060035038739443">
        <ele>297.88</ele>
        <time>2024-10-10T10:07:52.651Z</time>
      </trkpt>
      <trkpt lat="48.273110473528504" lon="17.060415744781494">
        <ele>299.81</ele>
        <time>2024-10-10T10:07:52.892Z</time>
      </trkpt>
      <trkpt lat="48.27296010218561" lon="17.06054985523224">
        <ele>301.3</ele>
        <time>2024-10-10T10:07:53.137Z</time>
      </trkpt>
      <trkpt lat="48.272809982299805" lon="17.060683965682983">
        <ele>302.43</ele>
        <time>2024-10-10T10:07:53.385Z</time>
      </trkpt>
      <trkpt lat="48.27262197621167" lon="17.060914803296328">
        <ele>303.18</ele>
        <time>2024-10-10T10:07:53.638Z</time>
      </trkpt>
      <trkpt lat="48.27243447303772" lon="17.061145305633545">
        <ele>303.51</ele>
        <time>2024-10-10T10:07:53.896Z</time>
      </trkpt>
      <trkpt lat="48.272208999842405" lon="17.06135460175574">
        <ele>303.54</ele>
        <time>2024-10-10T10:07:54.159Z</time>
      </trkpt>
      <trkpt lat="48.27198386192322" lon="17.061563730239868">
        <ele>303.45</ele>
        <time>2024-10-10T10:07:54.428Z</time>
      </trkpt>
      <trkpt lat="48.271769285202026" lon="17.061628019437194">
        <ele>303.07</ele>
        <time>2024-10-10T10:07:54.701Z</time>
      </trkpt>
      <trkpt lat="48.271554708480835" lon="17.06169239245355">
        <ele>302.57</ele>
        <time>2024-10-10T10:07:54.978Z</time>
      </trkpt>
      <trkpt lat="48.271340131759644" lon="17.06175684928894">
        <ele>302.12</ele>
        <time>2024-10-10T10:07:55.260Z</time>
      </trkpt>
      <trkpt lat="48.271077275276184" lon="17.061788951978087">
        <ele>301.86</ele>
        <time>2024-10-10T10:07:55.547Z</time>
      </trkpt>
      <trkpt lat="48.270814418792725" lon="17.061821222305298">
        <ele>301.99</ele>
        <time>2024-10-10T10:07:55.839Z</time>
      </trkpt>
      <trkpt lat="48.27064803801477" lon="17.06172994337976">
        <ele>301.95</ele>
        <time>2024-10-10T10:07:56.135Z</time>
      </trkpt>
      <trkpt lat="48.27048182487488" lon="17.061638832092285">
        <ele>302.08</ele>
        <time>2024-10-10T10:07:56.434Z</time>
      </trkpt>
      <trkpt lat="48.27031343244016" lon="17.061506481841207">
        <ele>302.54</ele>
        <time>2024-10-10T10:07:56.737Z</time>
      </trkpt>
      <trkpt lat="48.27014520764351" lon="17.061374383047223">
        <ele>303.04</ele>
        <time>2024-10-10T10:07:57.044Z</time>
      </trkpt>
      <trkpt lat="48.27003129757941" lon="17.06128478050232">
        <ele>304.46</ele>
        <time>2024-10-10T10:07:57.354Z</time>
      </trkpt>
      <trkpt lat="48.269891487434506" lon="17.06164486706257">
        <ele>305.51</ele>
        <time>2024-10-10T10:07:57.669Z</time>
      </trkpt>
      <trkpt lat="48.26975226402283" lon="17.06200361251831">
        <ele>306.41</ele>
        <time>2024-10-10T10:07:57.990Z</time>
      </trkpt>
      <trkpt lat="48.26965570449829" lon="17.062186002731323">
        <ele>307.13</ele>
        <time>2024-10-10T10:07:58.314Z</time>
      </trkpt>
      <trkpt lat="48.26953777112067" lon="17.062368392944336">
        <ele>307.67</ele>
        <time>2024-10-10T10:07:58.641Z</time>
      </trkpt>
      <trkpt lat="48.26940894126892" lon="17.06254005432129">
        <ele>308.16</ele>
        <time>2024-10-10T10:07:58.972Z</time>
      </trkpt>
      <trkpt lat="48.26920509338379" lon="17.0627224445343">
        <ele>308.49</ele>
        <time>2024-10-10T10:07:59.307Z</time>
      </trkpt>
      <trkpt lat="48.269033432006836" lon="17.0627760887146">
        <ele>308.84</ele>
        <time>2024-10-10T10:07:59.646Z</time>
      </trkpt>
      <trkpt lat="48.26875448226929" lon="17.06279754638672">
        <ele>309.29</ele>
        <time>2024-10-10T10:07:59.990Z</time>
      </trkpt>
      <trkpt lat="48.268534457311034" lon="17.062931656837463">
        <ele>309.55</ele>
        <time>2024-10-10T10:08:00.339Z</time>
      </trkpt>
      <trkpt lat="48.268314599990845" lon="17.063065767288208">
        <ele>309.88</ele>
        <time>2024-10-10T10:08:00.693Z</time>
      </trkpt>
      <trkpt lat="48.26819666661322" lon="17.063097953796387">
        <ele>310.47</ele>
        <time>2024-10-10T10:08:01.049Z</time>
      </trkpt>
      <trkpt lat="48.268041014671326" lon="17.063146149739623">
        <ele>311.29</ele>
        <time>2024-10-10T10:08:01.409Z</time>
      </trkpt>
      <trkpt lat="48.26788544654846" lon="17.063194513320923">
        <ele>312.27</ele>
        <time>2024-10-10T10:08:01.772Z</time>
      </trkpt>
      <trkpt lat="48.267628038302064" lon="17.063151597976685">
        <ele>313.47</ele>
        <time>2024-10-10T10:08:02.140Z</time>
      </trkpt>
      <trkpt lat="48.267354452982545" lon="17.063065767288208">
        <ele>314.67</ele>
        <time>2024-10-10T10:08:02.514Z</time>
      </trkpt>
      <trkpt lat="48.267080867663026" lon="17.06297993659973">
        <ele>315.74</ele>
        <time>2024-10-10T10:08:02.893Z</time>
      </trkpt>
      <trkpt lat="48.266844833269715" lon="17.062947750091553">
        <ele>316.77</ele>
        <time>2024-10-10T10:08:03.277Z</time>
      </trkpt>
      <trkpt lat="48.26665163040161" lon="17.062883377075195">
        <ele>317.86</ele>
        <time>2024-10-10T10:08:03.665Z</time>
      </trkpt>
      <trkpt lat="48.26650142669678" lon="17.0627760887146">
        <ele>318.85</ele>
        <time>2024-10-10T10:08:04.056Z</time>
      </trkpt>
      <trkpt lat="48.266340494155884" lon="17.062711715698242">
        <ele>319.83</ele>
        <time>2024-10-10T10:08:04.451Z</time>
      </trkpt>
      <trkpt lat="48.26627620495856" lon="17.062711715698242">
        <ele>320.7</ele>
        <time>2024-10-10T10:08:04.847Z</time>
      </trkpt>
      <trkpt lat="48.26617956161499" lon="17.062711715698242">
        <ele>321.51</ele>
        <time>2024-10-10T10:08:05.245Z</time>
      </trkpt>
      <trkpt lat="48.26597579754889" lon="17.062829732894897">
        <ele>322.39</ele>
        <time>2024-10-10T10:08:05.647Z</time>
      </trkpt>
      <trkpt lat="48.265814781188965" lon="17.06301212310791">
        <ele>323.14</ele>
        <time>2024-10-10T10:08:06.053Z</time>
      </trkpt>
      <trkpt lat="48.26572895050049" lon="17.063065767288208">
        <ele>323.7</ele>
        <time>2024-10-10T10:08:06.461Z</time>
      </trkpt>
      <trkpt lat="48.2655143737793" lon="17.063146149739623">
        <ele>324.15</ele>
        <time>2024-10-10T10:08:06.873Z</time>
      </trkpt>
      <trkpt lat="48.265299797058105" lon="17.0632266998291">
        <ele>324.53</ele>
        <time>2024-10-10T10:08:07.290Z</time>
      </trkpt>
      <trkpt lat="48.26510667800903" lon="17.063355445861816">
        <ele>324.78</ele>
        <time>2024-10-10T10:08:07.711Z</time>
      </trkpt>
      <trkpt lat="48.26495639048517" lon="17.06349492073059">
        <ele>325.03</ele>
        <time>2024-10-10T10:08:08.136Z</time>
      </trkpt>
      <trkpt lat="48.264806270599365" lon="17.063634395599365">
        <ele>325.18</ele>
        <time>2024-10-10T10:08:08.564Z</time>
      </trkpt>
      <trkpt lat="48.26459161005914" lon="17.063766662031412">
        <ele>325.27</ele>
        <time>2024-10-10T10:08:08.997Z</time>
      </trkpt>
      <trkpt lat="48.26437703333795" lon="17.06389901228249">
        <ele>325.36</ele>
        <time>2024-10-10T10:08:09.434Z</time>
      </trkpt>
      <trkpt lat="48.26416254043579" lon="17.06403136253357">
        <ele>325.42</ele>
        <time>2024-10-10T10:08:09.876Z</time>
      </trkpt>
      <trkpt lat="48.26395869255066" lon="17.064331769943237">
        <ele>325.44</ele>
        <time>2024-10-10T10:08:10.324Z</time>
      </trkpt>
      <trkpt lat="48.263840675354004" lon="17.064460515975952">
        <ele>325.44</ele>
        <time>2024-10-10T10:08:10.775Z</time>
      </trkpt>
      <trkpt lat="48.26372265815735" lon="17.064567804336548">
        <ele>325.45</ele>
        <time>2024-10-10T10:08:11.229Z</time>
      </trkpt>
      <trkpt lat="48.263561725616455" lon="17.064589262008667">
        <ele>325.36</ele>
        <time>2024-10-10T10:08:11.686Z</time>
      </trkpt>
      <trkpt lat="48.26336860656738" lon="17.064567804336548">
        <ele>325.26</ele>
        <time>2024-10-10T10:08:12.147Z</time>
      </trkpt>
      <trkpt lat="48.26316475868225" lon="17.064621448516846">
        <ele>325.14</ele>
        <time>2024-10-10T10:08:12.612Z</time>
      </trkpt>
      <trkpt lat="48.26292872428894" lon="17.064718008041382">
        <ele>324.96</ele>
        <time>2024-10-10T10:08:13.082Z</time>
      </trkpt>
      <trkpt lat="48.26266050338745" lon="17.064900398254395">
        <ele>324.74</ele>
        <time>2024-10-10T10:08:13.558Z</time>
      </trkpt>
      <trkpt lat="48.262504851445556" lon="17.06502914428711">
        <ele>324.62</ele>
        <time>2024-10-10T10:08:14.037Z</time>
      </trkpt>
      <trkpt lat="48.262349367141724" lon="17.065157890319824">
        <ele>324.51</ele>
        <time>2024-10-10T10:08:14.520Z</time>
      </trkpt>
      <trkpt lat="48.26216161251068" lon="17.06525981426239">
        <ele>324.48</ele>
        <time>2024-10-10T10:08:15.007Z</time>
      </trkpt>
      <trkpt lat="48.26197394169867" lon="17.065361738204956">
        <ele>324.52</ele>
        <time>2024-10-10T10:08:15.498Z</time>
      </trkpt>
      <trkpt lat="48.26169490814209" lon="17.06552267074585">
        <ele>324.56</ele>
        <time>2024-10-10T10:08:15.995Z</time>
      </trkpt>
      <trkpt lat="48.261469434946775" lon="17.06573372706771">
        <ele>324.67</ele>
        <time>2024-10-10T10:08:16.497Z</time>
      </trkpt>
      <trkpt lat="48.26124396175146" lon="17.0659448672086">
        <ele>325.0</ele>
        <time>2024-10-10T10:08:17.004Z</time>
      </trkpt>
      <trkpt lat="48.26101899147034" lon="17.066155672073364">
        <ele>325.62</ele>
        <time>2024-10-10T10:08:17.517Z</time>
      </trkpt>
      <trkpt lat="48.2608687877655" lon="17.066370248794556">
        <ele>326.41</ele>
        <time>2024-10-10T10:08:18.034Z</time>
      </trkpt>
      <trkpt lat="48.260868871584535" lon="17.066370248794556">
        <ele>326.94</ele>
        <time>2024-10-10T10:08:18.551Z</time>
      </trkpt>
      <trkpt lat="48.260729145258665" lon="17.06655817106366">
        <ele>327.67</ele>
        <time>2024-10-10T10:08:19.072Z</time>
      </trkpt>
      <trkpt lat="48.260589838027954" lon="17.06674575805664">
        <ele>328.34</ele>
        <time>2024-10-10T10:08:19.596Z</time>
      </trkpt>
      <trkpt lat="48.26032681390643" lon="17.066992605105042">
        <ele>328.97</ele>
        <time>2024-10-10T10:08:20.126Z</time>
      </trkpt>
      <trkpt lat="48.260064125061035" lon="17.06723928451538">
        <ele>329.53</ele>
        <time>2024-10-10T10:08:20.663Z</time>
      </trkpt>
      <trkpt lat="48.25992984697223" lon="17.067378843203187">
        <ele>330.16</ele>
        <time>2024-10-10T10:08:21.203Z</time>
      </trkpt>
      <trkpt lat="48.259795904159546" lon="17.06751823425293">
        <ele>330.68</ele>
        <time>2024-10-10T10:08:21.746Z</time>
      </trkpt>
      <trkpt lat="48.25959716923535" lon="17.06781093031168">
        <ele>331.29</ele>
        <time>2024-10-10T10:08:22.295Z</time>
      </trkpt>
      <trkpt lat="48.25939843431115" lon="17.06810362637043">
        <ele>331.72</ele>
        <time>2024-10-10T10:08:22.849Z</time>
      </trkpt>
      <trkpt lat="48.259199699386954" lon="17.06839632242918">
        <ele>332.14</ele>
        <time>2024-10-10T10:08:23.409Z</time>
      </trkpt>
      <trkpt lat="48.25900197029114" lon="17.068687677383423">
        <ele>332.58</ele>
        <time>2024-10-10T10:08:23.975Z</time>
      </trkpt>
      <trkpt lat="48.25873374938965" lon="17.068923711776733">
        <ele>333.09</ele>
        <time>2024-10-10T10:08:24.547Z</time>
      </trkpt>
      <trkpt lat="48.25873383320868" lon="17.068923711776733">
        <ele>333.57</ele>
        <time>2024-10-10T10:08:25.119Z</time>
      </trkpt>
      <trkpt lat="48.25858874246478" lon="17.06914390437305">
        <ele>334.11</ele>
        <time>2024-10-10T10:08:25.695Z</time>
      </trkpt>
      <trkpt lat="48.25844407081604" lon="17.069363594055176">
        <ele>334.65</ele>
        <time>2024-10-10T10:08:26.275Z</time>
      </trkpt>
      <trkpt lat="48.25831540860236" lon="17.069610357284546">
        <ele>335.28</ele>
        <time>2024-10-10T10:08:26.859Z</time>
      </trkpt>
      <trkpt lat="48.2581577450037" lon="17.069954266771674">
        <ele>335.92</ele>
        <time>2024-10-10T10:08:27.449Z</time>
      </trkpt>
      <trkpt lat="48.258000081405044" lon="17.070298176258802">
        <ele>336.66</ele>
        <time>2024-10-10T10:08:28.044Z</time>
      </trkpt>
      <trkpt lat="48.257843255996704" lon="17.070640325546265">
        <ele>337.46</ele>
        <time>2024-10-10T10:08:28.645Z</time>
      </trkpt>
      <trkpt lat="48.25773571617901" lon="17.070855237543583">
        <ele>338.24</ele>
        <time>2024-10-10T10:08:29.249Z</time>
      </trkpt>
      <trkpt lat="48.25762867927551" lon="17.071069478988647">
        <ele>339.06</ele>
        <time>2024-10-10T10:08:29.857Z</time>
      </trkpt>
      <trkpt lat="48.25751041062176" lon="17.071278942748904">
        <ele>339.96</ele>
        <time>2024-10-10T10:08:30.469Z</time>
      </trkpt>
      <trkpt lat="48.2573926448822" lon="17.07148790359497">
        <ele>340.89</ele>
        <time>2024-10-10T10:08:31.084Z</time>
      </trkpt>
      <trkpt lat="48.257296085357666" lon="17.071702480316162">
        <ele>341.83</ele>
        <time>2024-10-10T10:08:31.703Z</time>
      </trkpt>
      <trkpt lat="48.25718879699707" lon="17.071852684020996">
        <ele>342.83</ele>
        <time>2024-10-10T10:08:32.325Z</time>
      </trkpt>
      <trkpt lat="48.25702786445618" lon="17.07202434539795">
        <ele>343.83</ele>
        <time>2024-10-10T10:08:32.951Z</time>
      </trkpt>
      <trkpt lat="48.256824016571045" lon="17.072303295135498">
        <ele>344.78</ele>
        <time>2024-10-10T10:08:33.582Z</time>
      </trkpt>
      <trkpt lat="48.25672745704651" lon="17.072560787200928">
        <ele>345.81</ele>
        <time>2024-10-10T10:08:34.217Z</time>
      </trkpt>
      <trkpt lat="48.25664137490094" lon="17.07288877107203">
        <ele>346.93</ele>
        <time>2024-10-10T10:08:34.857Z</time>
      </trkpt>
      <trkpt lat="48.256555795669556" lon="17.07321524620056">
        <ele>348.14</ele>
        <time>2024-10-10T10:08:35.502Z</time>
      </trkpt>
      <trkpt lat="48.2564377784729" lon="17.073429822921753">
        <ele>349.29</ele>
        <time>2024-10-10T10:08:36.150Z</time>
      </trkpt>
      <trkpt lat="48.25631959363818" lon="17.07359092310071">
        <ele>350.49</ele>
        <time>2024-10-10T10:08:36.802Z</time>
      </trkpt>
      <trkpt lat="48.25620174407959" lon="17.07375168800354">
        <ele>351.59</ele>
        <time>2024-10-10T10:08:37.457Z</time>
      </trkpt>
      <trkpt lat="48.25603008270264" lon="17.073934078216553">
        <ele>352.62</ele>
        <time>2024-10-10T10:08:38.116Z</time>
      </trkpt>
      <trkpt lat="48.25589580461383" lon="17.07410590723157">
        <ele>353.47</ele>
        <time>2024-10-10T10:08:38.778Z</time>
      </trkpt>
      <trkpt lat="48.25576186180115" lon="17.07427740097046">
        <ele>354.28</ele>
        <time>2024-10-10T10:08:39.444Z</time>
      </trkpt>
      <trkpt lat="48.25562238693237" lon="17.07448124885559">
        <ele>355.14</ele>
        <time>2024-10-10T10:08:40.114Z</time>
      </trkpt>
      <trkpt lat="48.25549875386059" lon="17.074690712615848">
        <ele>355.92</ele>
        <time>2024-10-10T10:08:40.788Z</time>
      </trkpt>
      <trkpt lat="48.255375623703" lon="17.074899673461914">
        <ele>356.62</ele>
        <time>2024-10-10T10:08:41.465Z</time>
      </trkpt>
      <trkpt lat="48.255289793014526" lon="17.074953317642212">
        <ele>357.18</ele>
        <time>2024-10-10T10:08:42.144Z</time>
      </trkpt>
      <trkpt lat="48.25513958930969" lon="17.07499623298645">
        <ele>357.66</ele>
        <time>2024-10-10T10:08:42.826Z</time>
      </trkpt>
      <trkpt lat="48.25488209724426" lon="17.075124979019165">
        <ele>358.08</ele>
        <time>2024-10-10T10:08:43.514Z</time>
      </trkpt>
      <trkpt lat="48.25475335121155" lon="17.075200080871582">
        <ele>358.28</ele>
        <time>2024-10-10T10:08:44.204Z</time>
      </trkpt>
      <trkpt lat="48.25463533401489" lon="17.075307369232178">
        <ele>358.36</ele>
        <time>2024-10-10T10:08:44.897Z</time>
      </trkpt>
      <trkpt lat="48.25450658798218" lon="17.075393199920654">
        <ele>358.3</ele>
        <time>2024-10-10T10:08:45.593Z</time>
      </trkpt>
      <trkpt lat="48.25439929962158" lon="17.07545757293701">
        <ele>358.22</ele>
        <time>2024-10-10T10:08:46.291Z</time>
      </trkpt>
      <trkpt lat="48.25425982475281" lon="17.07547903060913">
        <ele>358.12</ele>
        <time>2024-10-10T10:08:46.992Z</time>
      </trkpt>
      <trkpt lat="48.25425990857184" lon="17.07547903060913">
        <ele>358.08</ele>
        <time>2024-10-10T10:08:47.693Z</time>
      </trkpt>
      <trkpt lat="48.25418472290039" lon="17.07550048828125">
        <ele>357.97</ele>
        <time>2024-10-10T10:08:48.396Z</time>
      </trkpt>
      <trkpt lat="48.25403460301459" lon="17.075639963150024">
        <ele>357.85</ele>
        <time>2024-10-10T10:08:49.102Z</time>
      </trkpt>
      <trkpt lat="48.25399168767035" lon="17.075682878494263">
        <ele>357.78</ele>
        <time>2024-10-10T10:08:49.809Z</time>
      </trkpt>
      <trkpt lat="48.253862941637635" lon="17.075833082199097">
        <ele>357.7</ele>
        <time>2024-10-10T10:08:50.520Z</time>
      </trkpt>
      <trkpt lat="48.25365900993347" lon="17.07603693008423">
        <ele>357.76</ele>
        <time>2024-10-10T10:08:51.235Z</time>
      </trkpt>
      <trkpt lat="48.25353026390076" lon="17.076197862625122">
        <ele>357.67</ele>
        <time>2024-10-10T10:08:51.954Z</time>
      </trkpt>
      <trkpt lat="48.2534122467041" lon="17.076369524002075">
        <ele>357.44</ele>
        <time>2024-10-10T10:08:52.676Z</time>
      </trkpt>
      <trkpt lat="48.25328358449042" lon="17.076605558395386">
        <ele>357.02</ele>
        <time>2024-10-10T10:08:53.402Z</time>
      </trkpt>
      <trkpt lat="48.253088453784585" lon="17.07688475959003">
        <ele>356.68</ele>
        <time>2024-10-10T10:08:54.134Z</time>
      </trkpt>
      <trkpt lat="48.25289332307875" lon="17.077164044603705">
        <ele>356.3</ele>
        <time>2024-10-10T10:08:54.871Z</time>
      </trkpt>
      <trkpt lat="48.25269819237292" lon="17.07744332961738">
        <ele>355.76</ele>
        <time>2024-10-10T10:08:55.613Z</time>
      </trkpt>
      <trkpt lat="48.252503061667085" lon="17.077722614631057">
        <ele>355.01</ele>
        <time>2024-10-10T10:08:56.361Z</time>
      </trkpt>
      <trkpt lat="48.25230793096125" lon="17.078001899644732">
        <ele>354.29</ele>
        <time>2024-10-10T10:08:57.114Z</time>
      </trkpt>
      <trkpt lat="48.252114141359925" lon="17.07827925682068">
        <ele>353.36</ele>
        <time>2024-10-10T10:08:57.873Z</time>
      </trkpt>
      <trkpt lat="48.25192077085376" lon="17.078553093597293">
        <ele>352.47</ele>
        <time>2024-10-10T10:08:58.637Z</time>
      </trkpt>
      <trkpt lat="48.25172790326178" lon="17.078826427459717">
        <ele>351.73</ele>
        <time>2024-10-10T10:08:59.406Z</time>
      </trkpt>
      <trkpt lat="48.251566886901855" lon="17.079062461853027">
        <ele>351.11</ele>
        <time>2024-10-10T10:09:00.180Z</time>
      </trkpt>
      <trkpt lat="48.25131987221539" lon="17.079348787665367">
        <ele>350.49</ele>
        <time>2024-10-10T10:09:00.960Z</time>
      </trkpt>
      <trkpt lat="48.25107294134796" lon="17.079635113477707">
        <ele>349.94</ele>
        <time>2024-10-10T10:09:01.746Z</time>
      </trkpt>
      <trkpt lat="48.250826597213745" lon="17.079920768737793">
        <ele>349.34</ele>
        <time>2024-10-10T10:09:02.538Z</time>
      </trkpt>
      <trkpt lat="48.2506441231817" lon="17.080049514770508">
        <ele>348.64</ele>
        <time>2024-10-10T10:09:03.334Z</time>
      </trkpt>
      <trkpt lat="48.25046181678772" lon="17.080178260803223">
        <ele>347.73</ele>
        <time>2024-10-10T10:09:04.135Z</time>
      </trkpt>
      <trkpt lat="48.25041898526251" lon="17.08023190498352">
        <ele>346.77</ele>
        <time>2024-10-10T10:09:04.937Z</time>
      </trkpt>
      <trkpt lat="48.250257801264524" lon="17.080441284924746">
        <ele>345.66</ele>
        <time>2024-10-10T10:09:05.743Z</time>
      </trkpt>
      <trkpt lat="48.250097036361694" lon="17.080650329589844">
        <ele>344.48</ele>
        <time>2024-10-10T10:09:06.553Z</time>
      </trkpt>
      <trkpt lat="48.249893272295594" lon="17.08099365234375">
        <ele>343.24</ele>
        <time>2024-10-10T10:09:07.369Z</time>
      </trkpt>
      <trkpt lat="48.249785983935" lon="17.081218957901">
        <ele>342.34</ele>
        <time>2024-10-10T10:09:08.189Z</time>
      </trkpt>
      <trkpt lat="48.249839544296265" lon="17.081422805786133">
        <ele>341.72</ele>
        <time>2024-10-10T10:09:09.012Z</time>
      </trkpt>
      <trkpt lat="48.249850273132324" lon="17.081540822982788">
        <ele>341.27</ele>
        <time>2024-10-10T10:09:09.837Z</time>
      </trkpt>
      <trkpt lat="48.24979109689593" lon="17.081965701654553">
        <ele>340.94</ele>
        <time>2024-10-10T10:09:10.667Z</time>
      </trkpt>
      <trkpt lat="48.24973225593567" lon="17.082388401031494">
        <ele>340.95</ele>
        <time>2024-10-10T10:09:11.503Z</time>
      </trkpt>
      <trkpt lat="48.24961759150028" lon="17.082714289426804">
        <ele>341.33</ele>
        <time>2024-10-10T10:09:12.344Z</time>
      </trkpt>
      <trkpt lat="48.24950301088393" lon="17.083040261641145">
        <ele>341.86</ele>
        <time>2024-10-10T10:09:13.190Z</time>
      </trkpt>
      <trkpt lat="48.24938843026757" lon="17.083366233855486">
        <ele>342.54</ele>
        <time>2024-10-10T10:09:14.041Z</time>
      </trkpt>
      <trkpt lat="48.2492748554796" lon="17.083689523860812">
        <ele>342.82</ele>
        <time>2024-10-10T10:09:14.897Z</time>
      </trkpt>
      <trkpt lat="48.24924945831299" lon="17.08376169204712">
        <ele>343.35</ele>
        <time>2024-10-10T10:09:15.754Z</time>
      </trkpt>
      <trkpt lat="48.24918508529663" lon="17.084115743637085">
        <ele>343.93</ele>
        <time>2024-10-10T10:09:16.616Z</time>
      </trkpt>
      <trkpt lat="48.249088525772095" lon="17.084351778030396">
        <ele>344.56</ele>
        <time>2024-10-10T10:09:17.481Z</time>
      </trkpt>
      <trkpt lat="48.249088609591126" lon="17.084351778030396">
        <ele>345.29</ele>
        <time>2024-10-10T10:09:18.346Z</time>
      </trkpt>
      <trkpt lat="48.24894905090332" lon="17.084577083587646">
        <ele>346.43</ele>
        <time>2024-10-10T10:09:19.216Z</time>
      </trkpt>
      <trkpt lat="48.248794907703996" lon="17.084953263401985">
        <ele>348.04</ele>
        <time>2024-10-10T10:09:20.091Z</time>
      </trkpt>
      <trkpt lat="48.2486408483237" lon="17.085329443216324">
        <ele>349.82</ele>
        <time>2024-10-10T10:09:20.972Z</time>
      </trkpt>
      <trkpt lat="48.24848771095276" lon="17.0857036113739">
        <ele>351.59</ele>
        <time>2024-10-10T10:09:21.859Z</time>
      </trkpt>
      <trkpt lat="48.2483696937561" lon="17.085832357406616">
        <ele>353.12</ele>
        <time>2024-10-10T10:09:22.749Z</time>
      </trkpt>
      <trkpt lat="48.248090744018555" lon="17.085918188095093">
        <ele>354.65</ele>
        <time>2024-10-10T10:09:23.645Z</time>
      </trkpt>
      <trkpt lat="48.24796199798584" lon="17.08599328994751">
        <ele>356.37</ele>
        <time>2024-10-10T10:09:24.544Z</time>
      </trkpt>
      <trkpt lat="48.247833251953125" lon="17.086143493652344">
        <ele>358.32</ele>
        <time>2024-10-10T10:09:25.446Z</time>
      </trkpt>
      <trkpt lat="48.24780114926398" lon="17.08627223968506">
        <ele>360.51</ele>
        <time>2024-10-10T10:09:26.350Z</time>
      </trkpt>
      <trkpt lat="48.2478226069361" lon="17.08651422522962">
        <ele>363.19</ele>
        <time>2024-10-10T10:09:27.257Z</time>
      </trkpt>
      <trkpt lat="48.247843980789185" lon="17.08675503730774">
        <ele>366.29</ele>
        <time>2024-10-10T10:09:28.167Z</time>
      </trkpt>
      <trkpt lat="48.247854709625244" lon="17.087098360061646">
        <ele>369.89</ele>
        <time>2024-10-10T10:09:29.082Z</time>
      </trkpt>
      <trkpt lat="48.247811794281006" lon="17.08744168281555">
        <ele>373.58</ele>
        <time>2024-10-10T10:09:30.001Z</time>
      </trkpt>
      <trkpt lat="48.24767231941223" lon="17.087860107421875">
        <ele>377.45</ele>
        <time>2024-10-10T10:09:30.927Z</time>
      </trkpt>
      <trkpt lat="48.24754332192242" lon="17.08806957118213">
        <ele>380.67</ele>
        <time>2024-10-10T10:09:31.857Z</time>
      </trkpt>
      <trkpt lat="48.2474148273468" lon="17.0882785320282">
        <ele>383.86</ele>
        <time>2024-10-10T10:09:32.790Z</time>
      </trkpt>
      <trkpt lat="48.24722170829773" lon="17.088418006896973">
        <ele>386.59</ele>
        <time>2024-10-10T10:09:33.728Z</time>
      </trkpt>
      <trkpt lat="48.24713587760925" lon="17.088611125946045">
        <ele>389.66</ele>
        <time>2024-10-10T10:09:34.669Z</time>
      </trkpt>
      <trkpt lat="48.24703546240926" lon="17.08903407678008">
        <ele>393.2</ele>
        <time>2024-10-10T10:09:35.616Z</time>
      </trkpt>
      <trkpt lat="48.246935131028295" lon="17.08945711143315">
        <ele>396.78</ele>
        <time>2024-10-10T10:09:36.569Z</time>
      </trkpt>
      <trkpt lat="48.246835470199585" lon="17.089877128601074">
        <ele>400.08</ele>
        <time>2024-10-10T10:09:37.528Z</time>
      </trkpt>
      <trkpt lat="48.246781658381224" lon="17.090151384472847">
        <ele>402.84</ele>
        <time>2024-10-10T10:09:38.491Z</time>
      </trkpt>
      <trkpt lat="48.24672818183899" lon="17.090424299240112">
        <ele>405.44</ele>
        <time>2024-10-10T10:09:39.457Z</time>
      </trkpt>
      <trkpt lat="48.24669582769275" lon="17.090714732185006">
        <ele>408.04</ele>
        <time>2024-10-10T10:09:40.427Z</time>
      </trkpt>
      <trkpt lat="48.24666380882263" lon="17.09100365638733">
        <ele>410.67</ele>
        <time>2024-10-10T10:09:41.401Z</time>
      </trkpt>
      <trkpt lat="48.24668526649475" lon="17.09145426750183">
        <ele>413.43</ele>
        <time>2024-10-10T10:09:42.381Z</time>
      </trkpt>
      <trkpt lat="48.24676405638456" lon="17.091823490336537">
        <ele>416.21</ele>
        <time>2024-10-10T10:09:43.366Z</time>
      </trkpt>
      <trkpt lat="48.24684293009341" lon="17.092192713171244">
        <ele>419.22</ele>
        <time>2024-10-10T10:09:44.357Z</time>
      </trkpt>
      <trkpt lat="48.24692130088806" lon="17.092559337615967">
        <ele>422.59</ele>
        <time>2024-10-10T10:09:45.353Z</time>
      </trkpt>
      <trkpt lat="48.24694812297821" lon="17.09295731037855">
        <ele>425.86</ele>
        <time>2024-10-10T10:09:46.354Z</time>
      </trkpt>
      <trkpt lat="48.24697494506836" lon="17.093353271484375">
        <ele>428.93</ele>
        <time>2024-10-10T10:09:47.360Z</time>
      </trkpt>
      <trkpt lat="48.2470178604126" lon="17.093535661697388">
        <ele>432.07</ele>
        <time>2024-10-10T10:09:48.369Z</time>
      </trkpt>
      <trkpt lat="48.24712514877319" lon="17.09368586540222">
        <ele>435.64</ele>
        <time>2024-10-10T10:09:49.381Z</time>
      </trkpt>
      <trkpt lat="48.247382724657655" lon="17.09388116374612">
        <ele>439.5</ele>
        <time>2024-10-10T10:09:50.399Z</time>
      </trkpt>
      <trkpt lat="48.247640300542116" lon="17.094076462090015">
        <ele>442.59</ele>
        <time>2024-10-10T10:09:51.422Z</time>
      </trkpt>
      <trkpt lat="48.24789787642658" lon="17.094271760433912">
        <ele>445.13</ele>
        <time>2024-10-10T10:09:52.451Z</time>
      </trkpt>
      <trkpt lat="48.24815545231104" lon="17.09446714259684">
        <ele>446.81</ele>
        <time>2024-10-10T10:09:53.486Z</time>
      </trkpt>
      <trkpt lat="48.24841260910034" lon="17.094662189483643">
        <ele>448.01</ele>
        <time>2024-10-10T10:09:54.527Z</time>
      </trkpt>
      <trkpt lat="48.24838478118181" lon="17.094539562240243">
        <ele>449.28</ele>
        <time>2024-10-10T10:09:55.570Z</time>
      </trkpt>
      <trkpt lat="48.24841260910034" lon="17.094662189483643">
        <ele>448.38</ele>
        <time>2024-10-10T10:09:56.614Z</time>
      </trkpt>
      <trkpt lat="48.24840188026428" lon="17.09450125694275">
        <ele>448.58</ele>
        <time>2024-10-10T10:09:57.660Z</time>
      </trkpt>
      <trkpt lat="48.24841260910034" lon="17.094340324401855">
        <ele>448.86</ele>
        <time>2024-10-10T10:09:58.709Z</time>
      </trkpt>
      <trkpt lat="48.24845552444458" lon="17.09421157836914">
        <ele>449.09</ele>
        <time>2024-10-10T10:09:59.759Z</time>
      </trkpt>
      <trkpt lat="48.24849709868431" lon="17.094114683568478">
        <ele>449.39</ele>
        <time>2024-10-10T10:10:00.811Z</time>
      </trkpt>
      <trkpt lat="48.24851989746094" lon="17.094061374664307">
        <ele>449.17</ele>
        <time>2024-10-10T10:10:01.864Z</time>
      </trkpt>
      <trkpt lat="48.248594999313354" lon="17.09395408630371">
        <ele>449.15</ele>
        <time>2024-10-10T10:10:02.919Z</time>
      </trkpt>
      <trkpt lat="48.24874528683722" lon="17.0937716960907">
        <ele>449.24</ele>
        <time>2024-10-10T10:10:03.978Z</time>
      </trkpt>
      <trkpt lat="48.24900269508362" lon="17.09368586540222">
        <ele>448.99</ele>
        <time>2024-10-10T10:10:05.042Z</time>
      </trkpt>
      <trkpt lat="48.249099254608154" lon="17.093632221221924">
        <ele>448.92</ele>
        <time>2024-10-10T10:10:06.108Z</time>
      </trkpt>
      <trkpt lat="48.24928164482117" lon="17.09347128868103">
        <ele>448.94</ele>
        <time>2024-10-10T10:10:07.178Z</time>
      </trkpt>
      <trkpt lat="48.249356746673584" lon="17.09344983100891">
        <ele>448.95</ele>
        <time>2024-10-10T10:10:08.250Z</time>
      </trkpt>
      <trkpt lat="48.24951776303351" lon="17.09344983100891">
        <ele>448.86</ele>
        <time>2024-10-10T10:10:09.325Z</time>
      </trkpt>
      <trkpt lat="48.24967861175537" lon="17.093428373336792">
        <ele>448.85</ele>
        <time>2024-10-10T10:10:10.403Z</time>
      </trkpt>
      <trkpt lat="48.2498824596405" lon="17.093331813812256">
        <ele>448.85</ele>
        <time>2024-10-10T10:10:11.486Z</time>
      </trkpt>
      <trkpt lat="48.25012922286987" lon="17.09325671195984">
        <ele>449.15</ele>
        <time>2024-10-10T10:10:12.574Z</time>
      </trkpt>
      <trkpt lat="48.25026878155768" lon="17.09325671195984">
        <ele>449.57</ele>
        <time>2024-10-10T10:10:13.665Z</time>
      </trkpt>
      <trkpt lat="48.25051546096802" lon="17.093154788017273">
        <ele>450.21</ele>
        <time>2024-10-10T10:10:14.761Z</time>
      </trkpt>
      <trkpt lat="48.25076222419739" lon="17.093052864074707">
        <ele>450.74</ele>
        <time>2024-10-10T10:10:15.862Z</time>
      </trkpt>
      <trkpt lat="48.25096607208252" lon="17.092913389205933">
        <ele>451.43</ele>
        <time>2024-10-10T10:10:16.967Z</time>
      </trkpt>
      <trkpt lat="48.25113773345947" lon="17.092870473861694">
        <ele>452.09</ele>
        <time>2024-10-10T10:10:18.076Z</time>
      </trkpt>
      <trkpt lat="48.25121283531189" lon="17.092891931533813">
        <ele>452.7</ele>
        <time>2024-10-10T10:10:19.186Z</time>
      </trkpt>
      <trkpt lat="48.25141668319702" lon="17.092849016189575">
        <ele>453.31</ele>
        <time>2024-10-10T10:10:20.300Z</time>
      </trkpt>
      <trkpt lat="48.251599073410034" lon="17.092784643173218">
        <ele>453.81</ele>
        <time>2024-10-10T10:10:21.418Z</time>
      </trkpt>
      <trkpt lat="48.25173854827881" lon="17.09266654215753">
        <ele>454.07</ele>
        <time>2024-10-10T10:10:22.539Z</time>
      </trkpt>
      <trkpt lat="48.25187802314758" lon="17.092548608779907">
        <ele>454.11</ele>
        <time>2024-10-10T10:10:23.664Z</time>
      </trkpt>
      <trkpt lat="48.25212478637695" lon="17.092323303222656">
        <ele>453.73</ele>
        <time>2024-10-10T10:10:24.794Z</time>
      </trkpt>
      <trkpt lat="48.25219988822937" lon="17.09219455718994">
        <ele>453.13</ele>
        <time>2024-10-10T10:10:25.927Z</time>
      </trkpt>
      <trkpt lat="48.25241446495056" lon="17.09202289581299">
        <ele>452.03</ele>
        <time>2024-10-10T10:10:27.064Z</time>
      </trkpt>
      <trkpt lat="48.252607583999634" lon="17.09202289581299">
        <ele>450.73</ele>
        <time>2024-10-10T10:10:28.205Z</time>
      </trkpt>
      <trkpt lat="48.25267195701599" lon="17.092065811157227">
        <ele>449.68</ele>
        <time>2024-10-10T10:10:29.348Z</time>
      </trkpt>
      <trkpt lat="48.25272560119629" lon="17.092119455337524">
        <ele>448.55</ele>
        <time>2024-10-10T10:10:30.492Z</time>
      </trkpt>
      <trkpt lat="48.25275778770447" lon="17.092205286026">
        <ele>447.33</ele>
        <time>2024-10-10T10:10:31.637Z</time>
      </trkpt>
      <trkpt lat="48.252800703048706" lon="17.092334032058716">
        <ele>445.97</ele>
        <time>2024-10-10T10:10:32.784Z</time>
      </trkpt>
      <trkpt lat="48.252822160720825" lon="17.09249496459961">
        <ele>444.46</ele>
        <time>2024-10-10T10:10:33.933Z</time>
      </trkpt>
      <trkpt lat="48.252822160720825" lon="17.092634439468384">
        <ele>442.79</ele>
        <time>2024-10-10T10:10:35.084Z</time>
      </trkpt>
      <trkpt lat="48.25276851654053" lon="17.093095779418945">
        <ele>440.65</ele>
        <time>2024-10-10T10:10:36.242Z</time>
      </trkpt>
      <trkpt lat="48.25276860035956" lon="17.093095779418945">
        <ele>438.82</ele>
        <time>2024-10-10T10:10:37.400Z</time>
      </trkpt>
      <trkpt lat="48.25272551737726" lon="17.09355829283595">
        <ele>436.25</ele>
        <time>2024-10-10T10:10:38.564Z</time>
      </trkpt>
      <trkpt lat="48.25268268585205" lon="17.09401845932007">
        <ele>434.47</ele>
        <time>2024-10-10T10:10:39.734Z</time>
      </trkpt>
      <trkpt lat="48.25268268585205" lon="17.09406154230237">
        <ele>433.41</ele>
        <time>2024-10-10T10:10:40.905Z</time>
      </trkpt>
      <trkpt lat="48.25268268585205" lon="17.09450125694275">
        <ele>434.2</ele>
        <time>2024-10-10T10:10:42.082Z</time>
      </trkpt>
      <trkpt lat="48.25270414352417" lon="17.094780206680298">
        <ele>435.02</ele>
        <time>2024-10-10T10:10:43.262Z</time>
      </trkpt>
      <trkpt lat="48.25273096561432" lon="17.09504909813404">
        <ele>435.63</ele>
        <time>2024-10-10T10:10:44.446Z</time>
      </trkpt>
      <trkpt lat="48.25275778770447" lon="17.095316648483276">
        <ele>435.96</ele>
        <time>2024-10-10T10:10:45.634Z</time>
      </trkpt>
      <trkpt lat="48.25274705886841" lon="17.09544539451599">
        <ele>436.14</ele>
        <time>2024-10-10T10:10:46.823Z</time>
      </trkpt>
      <trkpt lat="48.25272560119629" lon="17.095584869384766">
        <ele>436.07</ele>
        <time>2024-10-10T10:10:48.014Z</time>
      </trkpt>
      <trkpt lat="48.252586126327515" lon="17.095896005630493">
        <ele>435.83</ele>
        <time>2024-10-10T10:10:49.210Z</time>
      </trkpt>
      <trkpt lat="48.25242519378662" lon="17.096089124679565">
        <ele>435.72</ele>
        <time>2024-10-10T10:10:50.410Z</time>
      </trkpt>
      <trkpt lat="48.25226426124573" lon="17.09620714187622">
        <ele>435.67</ele>
        <time>2024-10-10T10:10:51.614Z</time>
      </trkpt>
      <trkpt lat="48.25212478637695" lon="17.096346616744995">
        <ele>435.72</ele>
        <time>2024-10-10T10:10:52.821Z</time>
      </trkpt>
      <trkpt lat="48.25199604034424" lon="17.096539735794067">
        <ele>435.8</ele>
        <time>2024-10-10T10:10:54.032Z</time>
      </trkpt>
      <trkpt lat="48.25194239616394" lon="17.096668481826782">
        <ele>435.77</ele>
        <time>2024-10-10T10:10:55.245Z</time>
      </trkpt>
      <trkpt lat="48.25191020965576" lon="17.096818685531616">
        <ele>435.63</ele>
        <time>2024-10-10T10:10:56.460Z</time>
      </trkpt>
      <trkpt lat="48.25186176225543" lon="17.09709830582142">
        <ele>435.43</ele>
        <time>2024-10-10T10:10:57.679Z</time>
      </trkpt>
      <trkpt lat="48.251813650131226" lon="17.097376585006714">
        <ele>435.17</ele>
        <time>2024-10-10T10:10:58.902Z</time>
      </trkpt>
      <trkpt lat="48.25176000595093" lon="17.097580432891846">
        <ele>435.03</ele>
        <time>2024-10-10T10:11:00.128Z</time>
      </trkpt>
      <trkpt lat="48.25166344642639" lon="17.097848653793335">
        <ele>434.9</ele>
        <time>2024-10-10T10:11:01.358Z</time>
      </trkpt>
      <trkpt lat="48.25163125991821" lon="17.09799885749817">
        <ele>434.87</ele>
        <time>2024-10-10T10:11:02.590Z</time>
      </trkpt>
      <trkpt lat="48.25162581168115" lon="17.098257020115852">
        <ele>434.81</ele>
        <time>2024-10-10T10:11:03.825Z</time>
      </trkpt>
      <trkpt lat="48.25162053108215" lon="17.09851384162903">
        <ele>434.87</ele>
        <time>2024-10-10T10:11:05.064Z</time>
      </trkpt>
      <trkpt lat="48.251577615737915" lon="17.098889350891113">
        <ele>435.09</ele>
        <time>2024-10-10T10:11:06.308Z</time>
      </trkpt>
      <trkpt lat="48.25157216750085" lon="17.099142149090767">
        <ele>435.31</ele>
        <time>2024-10-10T10:11:07.555Z</time>
      </trkpt>
      <trkpt lat="48.251566886901855" lon="17.099393606185913">
        <ele>435.6</ele>
        <time>2024-10-10T10:11:08.806Z</time>
      </trkpt>
      <trkpt lat="48.25151324272156" lon="17.099672555923462">
        <ele>435.92</ele>
        <time>2024-10-10T10:11:10.060Z</time>
      </trkpt>
      <trkpt lat="48.25147032737732" lon="17.099790573120117">
        <ele>436.17</ele>
        <time>2024-10-10T10:11:11.316Z</time>
      </trkpt>
      <trkpt lat="48.251341581344604" lon="17.100026607513428">
        <ele>436.35</ele>
        <time>2024-10-10T10:11:12.576Z</time>
      </trkpt>
      <trkpt lat="48.25120210647583" lon="17.10023045539856">
        <ele>436.39</ele>
        <time>2024-10-10T10:11:13.840Z</time>
      </trkpt>
      <trkpt lat="48.25106246396899" lon="17.100370014086366">
        <ele>436.36</ele>
        <time>2024-10-10T10:11:15.108Z</time>
      </trkpt>
      <trkpt lat="48.25092315673828" lon="17.10050940513611">
        <ele>436.29</ele>
        <time>2024-10-10T10:11:16.379Z</time>
      </trkpt>
      <trkpt lat="48.250772869214416" lon="17.100632786750793">
        <ele>436.29</ele>
        <time>2024-10-10T10:11:17.653Z</time>
      </trkpt>
      <trkpt lat="48.25062274932861" lon="17.10075616836548">
        <ele>436.32</ele>
        <time>2024-10-10T10:11:18.931Z</time>
      </trkpt>
      <trkpt lat="48.25052618980408" lon="17.100863456726074">
        <ele>436.27</ele>
        <time>2024-10-10T10:11:20.211Z</time>
      </trkpt>
      <trkpt lat="48.25046181678772" lon="17.10098147392273">
        <ele>436.12</ele>
        <time>2024-10-10T10:11:21.493Z</time>
      </trkpt>
      <trkpt lat="48.25042963027954" lon="17.101088762283325">
        <ele>435.84</ele>
        <time>2024-10-10T10:11:22.777Z</time>
      </trkpt>
      <trkpt lat="48.25042963027954" lon="17.101303339004517">
        <ele>435.45</ele>
        <time>2024-10-10T10:11:24.064Z</time>
      </trkpt>
      <trkpt lat="48.25046181678772" lon="17.101389169692993">
        <ele>435.01</ele>
        <time>2024-10-10T10:11:25.352Z</time>
      </trkpt>
      <trkpt lat="48.25052618980408" lon="17.10149645805359">
        <ele>434.44</ele>
        <time>2024-10-10T10:11:26.642Z</time>
      </trkpt>
      <trkpt lat="48.25073003768921" lon="17.10172176361084">
        <ele>433.56</ele>
        <time>2024-10-10T10:11:27.937Z</time>
      </trkpt>
      <trkpt lat="48.25077295303345" lon="17.101818323135376">
        <ele>432.86</ele>
        <time>2024-10-10T10:11:29.234Z</time>
      </trkpt>
      <trkpt lat="48.25078368186951" lon="17.102118730545044">
        <ele>432.36</ele>
        <time>2024-10-10T10:11:30.535Z</time>
      </trkpt>
      <trkpt lat="48.25069785118103" lon="17.10249423980713">
        <ele>431.85</ele>
        <time>2024-10-10T10:11:31.841Z</time>
      </trkpt>
      <trkpt lat="48.25067639350891" lon="17.10269808769226">
        <ele>431.1</ele>
        <time>2024-10-10T10:11:33.150Z</time>
      </trkpt>
      <trkpt lat="48.25067639350891" lon="17.102950885891914">
        <ele>430.31</ele>
        <time>2024-10-10T10:11:34.462Z</time>
      </trkpt>
      <trkpt lat="48.25067639350891" lon="17.10320234298706">
        <ele>429.42</ele>
        <time>2024-10-10T10:11:35.777Z</time>
      </trkpt>
      <trkpt lat="48.25065493583679" lon="17.103341817855835">
        <ele>428.56</ele>
        <time>2024-10-10T10:11:37.094Z</time>
      </trkpt>
      <trkpt lat="48.250612020492554" lon="17.10347056388855">
        <ele>427.69</ele>
        <time>2024-10-10T10:11:38.413Z</time>
      </trkpt>
      <trkpt lat="48.25042577460408" lon="17.10376770235598">
        <ele>426.83</ele>
        <time>2024-10-10T10:11:39.738Z</time>
      </trkpt>
      <trkpt lat="48.25023952871561" lon="17.104064924642444">
        <ele>425.98</ele>
        <time>2024-10-10T10:11:41.068Z</time>
      </trkpt>
      <trkpt lat="48.250054121017456" lon="17.104361057281494">
        <ele>425.19</ele>
        <time>2024-10-10T10:11:42.404Z</time>
      </trkpt>
      <trkpt lat="48.249861001968384" lon="17.104640007019043">
        <ele>424.32</ele>
        <time>2024-10-10T10:11:43.745Z</time>
      </trkpt>
      <trkpt lat="48.249828815460205" lon="17.1047043800354">
        <ele>423.6</ele>
        <time>2024-10-10T10:11:45.087Z</time>
      </trkpt>
      <trkpt lat="48.249818086624146" lon="17.1047580242157">
        <ele>422.92</ele>
        <time>2024-10-10T10:11:46.430Z</time>
      </trkpt>
      <trkpt lat="48.249828815460205" lon="17.104811668395996">
        <ele>422.29</ele>
        <time>2024-10-10T10:11:47.773Z</time>
      </trkpt>
      <trkpt lat="48.24990391731262" lon="17.104886770248413">
        <ele>421.73</ele>
        <time>2024-10-10T10:11:49.118Z</time>
      </trkpt>
      <trkpt lat="48.25012385845184" lon="17.105020880699158">
        <ele>421.2</ele>
        <time>2024-10-10T10:11:50.468Z</time>
      </trkpt>
      <trkpt lat="48.250343799591064" lon="17.105154991149902">
        <ele>420.66</ele>
        <time>2024-10-10T10:11:51.823Z</time>
      </trkpt>
      <trkpt lat="48.25051546096802" lon="17.105294466018677">
        <ele>420.16</ele>
        <time>2024-10-10T10:11:53.182Z</time>
      </trkpt>
      <trkpt lat="48.250579833984375" lon="17.105380296707153">
        <ele>419.7</ele>
        <time>2024-10-10T10:11:54.542Z</time>
      </trkpt>
      <trkpt lat="48.250601291656494" lon="17.10543394088745">
        <ele>419.36</ele>
        <time>2024-10-10T10:11:55.903Z</time>
      </trkpt>
      <trkpt lat="48.250612020492554" lon="17.105519771575928">
        <ele>419.12</ele>
        <time>2024-10-10T10:11:57.265Z</time>
      </trkpt>
      <trkpt lat="48.250590562820435" lon="17.105616331100464">
        <ele>418.98</ele>
        <time>2024-10-10T10:11:58.629Z</time>
      </trkpt>
      <trkpt lat="48.250515293329954" lon="17.105825962498784">
        <ele>418.96</ele>
        <time>2024-10-10T10:11:59.996Z</time>
      </trkpt>
      <trkpt lat="48.2504403591156" lon="17.106034755706787">
        <ele>418.85</ele>
        <time>2024-10-10T10:12:01.366Z</time>
      </trkpt>
      <trkpt lat="48.25035964138806" lon="17.106357291340828">
        <ele>418.6</ele>
        <time>2024-10-10T10:12:02.741Z</time>
      </trkpt>
      <trkpt lat="48.25027942657471" lon="17.10667848587036">
        <ele>418.42</ele>
        <time>2024-10-10T10:12:04.120Z</time>
      </trkpt>
      <trkpt lat="48.25015068054199" lon="17.107086181640625">
        <ele>418.33</ele>
        <time>2024-10-10T10:12:05.505Z</time>
      </trkpt>
      <trkpt lat="48.25005923397839" lon="17.107306458055973">
        <ele>418.38</ele>
        <time>2024-10-10T10:12:06.894Z</time>
      </trkpt>
      <trkpt lat="48.24996829032898" lon="17.107526063919067">
        <ele>418.52</ele>
        <time>2024-10-10T10:12:08.286Z</time>
      </trkpt>
      <trkpt lat="48.24990391731262" lon="17.107772827148438">
        <ele>418.61</ele>
        <time>2024-10-10T10:12:09.682Z</time>
      </trkpt>
      <trkpt lat="48.249850273132324" lon="17.107901573181152">
        <ele>418.63</ele>
        <time>2024-10-10T10:12:11.080Z</time>
      </trkpt>
      <trkpt lat="48.24970006942749" lon="17.108126878738403">
        <ele>418.74</ele>
        <time>2024-10-10T10:12:12.482Z</time>
      </trkpt>
      <trkpt lat="48.24949622154236" lon="17.108373641967773">
        <ele>418.94</ele>
        <time>2024-10-10T10:12:13.889Z</time>
      </trkpt>
      <trkpt lat="48.24939966201782" lon="17.108620405197144">
        <ele>419.0</ele>
        <time>2024-10-10T10:12:15.300Z</time>
      </trkpt>
      <trkpt lat="48.2493782043457" lon="17.108813524246216">
        <ele>418.88</ele>
        <time>2024-10-10T10:12:16.714Z</time>
      </trkpt>
      <trkpt lat="48.249367475509644" lon="17.10896372795105">
        <ele>418.61</ele>
        <time>2024-10-10T10:12:18.130Z</time>
      </trkpt>
      <trkpt lat="48.24941039085388" lon="17.109274864196777">
        <ele>418.17</ele>
        <time>2024-10-10T10:12:19.550Z</time>
      </trkpt>
      <trkpt lat="48.24942111968994" lon="17.10941433906555">
        <ele>417.77</ele>
        <time>2024-10-10T10:12:20.972Z</time>
      </trkpt>
      <trkpt lat="48.24941039085388" lon="17.10967183113098">
        <ele>417.29</ele>
        <time>2024-10-10T10:12:22.397Z</time>
      </trkpt>
      <trkpt lat="48.24944257736206" lon="17.110100984573364">
        <ele>416.92</ele>
        <time>2024-10-10T10:12:23.828Z</time>
      </trkpt>
      <trkpt lat="48.24950695037842" lon="17.110551595687866">
        <ele>416.35</ele>
        <time>2024-10-10T10:12:25.265Z</time>
      </trkpt>
      <trkpt lat="48.24944257736206" lon="17.11098074913025">
        <ele>415.62</ele>
        <time>2024-10-10T10:12:26.708Z</time>
      </trkpt>
      <trkpt lat="48.24946403503418" lon="17.11124897003174">
        <ele>414.83</ele>
        <time>2024-10-10T10:12:28.155Z</time>
      </trkpt>
      <trkpt lat="48.24945330619812" lon="17.111377716064453">
        <ele>414.33</ele>
        <time>2024-10-10T10:12:29.604Z</time>
      </trkpt>
      <trkpt lat="48.24938893318176" lon="17.111785411834717">
        <ele>413.93</ele>
        <time>2024-10-10T10:12:31.058Z</time>
      </trkpt>
      <trkpt lat="48.24937275610864" lon="17.11203821003437">
        <ele>413.54</ele>
        <time>2024-10-10T10:12:32.516Z</time>
      </trkpt>
      <trkpt lat="48.249356746673584" lon="17.112289667129517">
        <ele>413.22</ele>
        <time>2024-10-10T10:12:33.977Z</time>
      </trkpt>
      <trkpt lat="48.249303102493286" lon="17.112611532211304">
        <ele>412.9</ele>
        <time>2024-10-10T10:12:35.442Z</time>
      </trkpt>
      <trkpt lat="48.24929237365723" lon="17.11294412612915">
        <ele>412.63</ele>
        <time>2024-10-10T10:12:36.912Z</time>
      </trkpt>
      <trkpt lat="48.24922800064087" lon="17.113362550735474">
        <ele>412.53</ele>
        <time>2024-10-10T10:12:38.388Z</time>
      </trkpt>
      <trkpt lat="48.249303102493286" lon="17.11344838142395">
        <ele>412.3</ele>
        <time>2024-10-10T10:12:39.865Z</time>
      </trkpt>
      <trkpt lat="48.249356746673584" lon="17.113566398620605">
        <ele>412.12</ele>
        <time>2024-10-10T10:12:41.344Z</time>
      </trkpt>
      <trkpt lat="48.2493782043457" lon="17.11368441581726">
        <ele>411.99</ele>
        <time>2024-10-10T10:12:42.825Z</time>
      </trkpt>
      <trkpt lat="48.249367475509644" lon="17.11392045021057">
        <ele>411.83</ele>
        <time>2024-10-10T10:12:44.309Z</time>
      </trkpt>
      <trkpt lat="48.249346017837524" lon="17.11398482322693">
        <ele>411.84</ele>
        <time>2024-10-10T10:12:45.794Z</time>
      </trkpt>
      <trkpt lat="48.24929237365723" lon="17.114070653915405">
        <ele>411.95</ele>
        <time>2024-10-10T10:12:47.281Z</time>
      </trkpt>
      <trkpt lat="48.249099254608154" lon="17.11424231529236">
        <ele>412.14</ele>
        <time>2024-10-10T10:12:48.772Z</time>
      </trkpt>
      <trkpt lat="48.248863220214844" lon="17.114338874816895">
        <ele>412.51</ele>
        <time>2024-10-10T10:12:50.268Z</time>
      </trkpt>
      <trkpt lat="48.248594999313354" lon="17.11441397666931">
        <ele>413.0</ele>
        <time>2024-10-10T10:12:51.770Z</time>
      </trkpt>
      <trkpt lat="48.24843406677246" lon="17.11442470550537">
        <ele>413.38</ele>
        <time>2024-10-10T10:12:53.275Z</time>
      </trkpt>
      <trkpt lat="48.24829459190369" lon="17.114392518997192">
        <ele>413.75</ele>
        <time>2024-10-10T10:12:54.783Z</time>
      </trkpt>
      <trkpt lat="48.248112201690674" lon="17.114295959472656">
        <ele>413.97</ele>
        <time>2024-10-10T10:12:56.294Z</time>
      </trkpt>
      <trkpt lat="48.24790835380554" lon="17.114102840423584">
        <ele>414.01</ele>
        <time>2024-10-10T10:12:57.810Z</time>
      </trkpt>
      <trkpt lat="48.247854709625244" lon="17.114017009735107">
        <ele>414.16</ele>
        <time>2024-10-10T10:12:59.328Z</time>
      </trkpt>
      <trkpt lat="48.24774742126465" lon="17.11395263671875">
        <ele>414.26</ele>
        <time>2024-10-10T10:13:00.848Z</time>
      </trkpt>
      <trkpt lat="48.24767231941223" lon="17.11394190788269">
        <ele>414.46</ele>
        <time>2024-10-10T10:13:02.370Z</time>
      </trkpt>
      <trkpt lat="48.24743628501892" lon="17.114006280899048">
        <ele>414.69</ele>
        <time>2024-10-10T10:13:03.896Z</time>
      </trkpt>
      <trkpt lat="48.24714660644531" lon="17.114017009735107">
        <ele>414.97</ele>
        <time>2024-10-10T10:13:05.428Z</time>
      </trkpt>
      <trkpt lat="48.2469642162323" lon="17.11399555206299">
        <ele>415.31</ele>
        <time>2024-10-10T10:13:06.964Z</time>
      </trkpt>
      <trkpt lat="48.246835470199585" lon="17.114038467407227">
        <ele>415.63</ele>
        <time>2024-10-10T10:13:08.503Z</time>
      </trkpt>
      <trkpt lat="48.24672818183899" lon="17.11419939994812">
        <ele>415.95</ele>
        <time>2024-10-10T10:13:10.045Z</time>
      </trkpt>
      <trkpt lat="48.24654579162598" lon="17.114542722702026">
        <ele>416.28</ele>
        <time>2024-10-10T10:13:11.592Z</time>
      </trkpt>
      <trkpt lat="48.24648141860962" lon="17.114617824554443">
        <ele>416.51</ele>
        <time>2024-10-10T10:13:13.141Z</time>
      </trkpt>
      <trkpt lat="48.24621319770813" lon="17.114810943603516">
        <ele>416.87</ele>
        <time>2024-10-10T10:13:14.696Z</time>
      </trkpt>
      <trkpt lat="48.24602007865906" lon="17.11499333381653">
        <ele>417.13</ele>
        <time>2024-10-10T10:13:16.256Z</time>
      </trkpt>
      <trkpt lat="48.24589133262634" lon="17.1152400970459">
        <ele>417.18</ele>
        <time>2024-10-10T10:13:17.820Z</time>
      </trkpt>
      <trkpt lat="48.245869874954224" lon="17.115401029586792">
        <ele>417.13</ele>
        <time>2024-10-10T10:13:19.386Z</time>
      </trkpt>
      <trkpt lat="48.245837688446045" lon="17.115851640701294">
        <ele>416.78</ele>
        <time>2024-10-10T10:13:20.958Z</time>
      </trkpt>
      <trkpt lat="48.24583224020898" lon="17.116093626245856">
        <ele>416.55</ele>
        <time>2024-10-10T10:13:22.533Z</time>
      </trkpt>
      <trkpt lat="48.245826959609985" lon="17.116334438323975">
        <ele>416.4</ele>
        <time>2024-10-10T10:13:24.112Z</time>
      </trkpt>
      <trkpt lat="48.24579477310181" lon="17.116538286209106">
        <ele>416.23</ele>
        <time>2024-10-10T10:13:25.693Z</time>
      </trkpt>
      <trkpt lat="48.24577331542969" lon="17.11667776107788">
        <ele>416.07</ele>
        <time>2024-10-10T10:13:27.276Z</time>
      </trkpt>
      <trkpt lat="48.24577331542969" lon="17.116817235946655">
        <ele>415.87</ele>
        <time>2024-10-10T10:13:28.861Z</time>
      </trkpt>
      <trkpt lat="48.245805501937866" lon="17.11698889732361">
        <ele>415.68</ele>
        <time>2024-10-10T10:13:30.448Z</time>
      </trkpt>
      <trkpt lat="48.2459557056427" lon="17.117310762405396">
        <ele>415.41</ele>
        <time>2024-10-10T10:13:32.041Z</time>
      </trkpt>
      <trkpt lat="48.246009349823" lon="17.11746096611023">
        <ele>415.17</ele>
        <time>2024-10-10T10:13:33.636Z</time>
      </trkpt>
      <trkpt lat="48.24604153633118" lon="17.117621898651123">
        <ele>414.92</ele>
        <time>2024-10-10T10:13:35.233Z</time>
      </trkpt>
      <trkpt lat="48.246052265167236" lon="17.117815017700195">
        <ele>414.72</ele>
        <time>2024-10-10T10:13:36.833Z</time>
      </trkpt>
      <trkpt lat="48.24602007865906" lon="17.11820125579834">
        <ele>414.66</ele>
        <time>2024-10-10T10:13:38.438Z</time>
      </trkpt>
      <trkpt lat="48.24603080749512" lon="17.118351459503174">
        <ele>414.4</ele>
        <time>2024-10-10T10:13:40.045Z</time>
      </trkpt>
      <trkpt lat="48.24602007865906" lon="17.118780612945557">
        <ele>414.04</ele>
        <time>2024-10-10T10:13:41.658Z</time>
      </trkpt>
      <trkpt lat="48.24595017358661" lon="17.119092419743538">
        <ele>413.83</ele>
        <time>2024-10-10T10:13:43.275Z</time>
      </trkpt>
      <trkpt lat="48.24588060379028" lon="17.11940288543701">
        <ele>413.7</ele>
        <time>2024-10-10T10:13:44.897Z</time>
      </trkpt>
      <trkpt lat="48.245837688446045" lon="17.11970329284668">
        <ele>413.66</ele>
        <time>2024-10-10T10:13:46.523Z</time>
      </trkpt>
      <trkpt lat="48.245859146118164" lon="17.119992971420288">
        <ele>413.52</ele>
        <time>2024-10-10T10:13:48.153Z</time>
      </trkpt>
      <trkpt lat="48.24593424797058" lon="17.120347023010254">
        <ele>413.38</ele>
        <time>2024-10-10T10:13:49.788Z</time>
      </trkpt>
      <trkpt lat="48.24602007865906" lon="17.120625972747803">
        <ele>413.29</ele>
        <time>2024-10-10T10:13:51.427Z</time>
      </trkpt>
      <trkpt lat="48.24612217023969" lon="17.12085697799921">
        <ele>413.33</ele>
        <time>2024-10-10T10:13:53.069Z</time>
      </trkpt>
      <trkpt lat="48.24622392654419" lon="17.121087312698364">
        <ele>413.42</ele>
        <time>2024-10-10T10:13:54.715Z</time>
      </trkpt>
      <trkpt lat="48.24626684188843" lon="17.12115168571472">
        <ele>413.49</ele>
        <time>2024-10-10T10:13:56.362Z</time>
      </trkpt>
      <trkpt lat="48.24628829956055" lon="17.12116241455078">
        <ele>413.59</ele>
        <time>2024-10-10T10:13:58.010Z</time>
      </trkpt>
      <trkpt lat="48.246331214904785" lon="17.121130228042603">
        <ele>413.71</ele>
        <time>2024-10-10T10:13:59.659Z</time>
      </trkpt>
      <trkpt lat="48.24649214744568" lon="17.120765447616577">
        <ele>413.83</ele>
        <time>2024-10-10T10:14:01.314Z</time>
      </trkpt>
      <trkpt lat="48.24652433395386" lon="17.1207332611084">
        <ele>414.04</ele>
        <time>2024-10-10T10:14:02.969Z</time>
      </trkpt>
      <trkpt lat="48.246577978134155" lon="17.1207332611084">
        <ele>414.31</ele>
        <time>2024-10-10T10:14:04.625Z</time>
      </trkpt>
      <trkpt lat="48.24663162231445" lon="17.120776176452637">
        <ele>414.64</ele>
        <time>2024-10-10T10:14:06.283Z</time>
      </trkpt>
      <trkpt lat="48.24665307998657" lon="17.120808362960815">
        <ele>414.99</ele>
        <time>2024-10-10T10:14:07.941Z</time>
      </trkpt>
      <trkpt lat="48.24666380882263" lon="17.12092638015747">
        <ele>415.41</ele>
        <time>2024-10-10T10:14:09.601Z</time>
      </trkpt>
      <trkpt lat="48.246588706970215" lon="17.12116241455078">
        <ele>415.89</ele>
        <time>2024-10-10T10:14:11.264Z</time>
      </trkpt>
      <trkpt lat="48.246577978134155" lon="17.121280431747437">
        <ele>416.3</ele>
        <time>2024-10-10T10:14:12.929Z</time>
      </trkpt>
      <trkpt lat="48.246588706970215" lon="17.12148427963257">
        <ele>416.74</ele>
        <time>2024-10-10T10:14:14.597Z</time>
      </trkpt>
      <trkpt lat="48.246620893478394" lon="17.121580839157104">
        <ele>417.13</ele>
        <time>2024-10-10T10:14:16.266Z</time>
      </trkpt>
      <trkpt lat="48.24669599533081" lon="17.121773958206177">
        <ele>417.54</ele>
        <time>2024-10-10T10:14:17.938Z</time>
      </trkpt>
      <trkpt lat="48.246824741363525" lon="17.12196707725525">
        <ele>417.95</ele>
        <time>2024-10-10T10:14:19.614Z</time>
      </trkpt>
      <trkpt lat="48.246867656707764" lon="17.122009992599487">
        <ele>418.32</ele>
        <time>2024-10-10T10:14:21.291Z</time>
      </trkpt>
      <trkpt lat="48.24697494506836" lon="17.122063636779785">
        <ele>418.68</ele>
        <time>2024-10-10T10:14:22.970Z</time>
      </trkpt>
      <trkpt lat="48.24703931808472" lon="17.122128009796143">
        <ele>419.09</ele>
        <time>2024-10-10T10:14:24.651Z</time>
      </trkpt>
      <trkpt lat="48.247071504592896" lon="17.12222456932068">
        <ele>419.57</ele>
        <time>2024-10-10T10:14:26.333Z</time>
      </trkpt>
      <trkpt lat="48.247114419937134" lon="17.12242841720581">
        <ele>420.13</ele>
        <time>2024-10-10T10:14:28.018Z</time>
      </trkpt>
      <trkpt lat="48.24712514877319" lon="17.122567892074585">
        <ele>420.72</ele>
        <time>2024-10-10T10:14:29.705Z</time>
      </trkpt>
      <trkpt lat="48.247103691101074" lon="17.12271809577942">
        <ele>421.41</ele>
        <time>2024-10-10T10:14:31.394Z</time>
      </trkpt>
      <trkpt lat="48.24706060811877" lon="17.12294926866889">
        <ele>422.24</ele>
        <time>2024-10-10T10:14:33.086Z</time>
      </trkpt>
      <trkpt lat="48.2470178604126" lon="17.12317943572998">
        <ele>423.25</ele>
        <time>2024-10-10T10:14:34.781Z</time>
      </trkpt>
      <trkpt lat="48.247060775756836" lon="17.12347984313965">
        <ele>424.32</ele>
        <time>2024-10-10T10:14:36.480Z</time>
      </trkpt>
      <trkpt lat="48.24712514877319" lon="17.123812437057495">
        <ele>425.65</ele>
        <time>2024-10-10T10:14:38.184Z</time>
      </trkpt>
      <trkpt lat="48.24715733528137" lon="17.12416648864746">
        <ele>427.13</ele>
        <time>2024-10-10T10:14:39.893Z</time>
      </trkpt>
      <trkpt lat="48.24715733528137" lon="17.124606370925903">
        <ele>428.62</ele>
        <time>2024-10-10T10:14:41.608Z</time>
      </trkpt>
      <trkpt lat="48.24720025062561" lon="17.124788761138916">
        <ele>429.93</ele>
        <time>2024-10-10T10:14:43.325Z</time>
      </trkpt>
      <trkpt lat="48.247339725494385" lon="17.125110626220703">
        <ele>431.36</ele>
        <time>2024-10-10T10:14:45.047Z</time>
      </trkpt>
      <trkpt lat="48.247597217559814" lon="17.125239372253418">
        <ele>432.84</ele>
        <time>2024-10-10T10:14:46.775Z</time>
      </trkpt>
      <trkpt lat="48.24776887893677" lon="17.125378847122192">
        <ele>434.17</ele>
        <time>2024-10-10T10:14:48.507Z</time>
      </trkpt>
      <trkpt lat="48.247822523117065" lon="17.12545394897461">
        <ele>435.32</ele>
        <time>2024-10-10T10:14:50.240Z</time>
      </trkpt>
      <trkpt lat="48.24794054031372" lon="17.125743627548218">
        <ele>436.54</ele>
        <time>2024-10-10T10:14:51.978Z</time>
      </trkpt>
      <trkpt lat="48.248090744018555" lon="17.126044034957886">
        <ele>437.56</ele>
        <time>2024-10-10T10:14:53.721Z</time>
      </trkpt>
      <trkpt lat="48.24812293052673" lon="17.126129865646362">
        <ele>438.59</ele>
        <time>2024-10-10T10:14:55.465Z</time>
      </trkpt>
      <trkpt lat="48.24813365936279" lon="17.12644100189209">
        <ele>439.77</ele>
        <time>2024-10-10T10:14:57.213Z</time>
      </trkpt>
      <trkpt lat="48.24812293052673" lon="17.126591205596924">
        <ele>441.05</ele>
        <time>2024-10-10T10:14:58.963Z</time>
      </trkpt>
      <trkpt lat="48.248069286346436" lon="17.126837968826294">
        <ele>442.49</ele>
        <time>2024-10-10T10:15:00.717Z</time>
      </trkpt>
      <trkpt lat="48.24801564216614" lon="17.12697744369507">
        <ele>443.9</ele>
        <time>2024-10-10T10:15:02.473Z</time>
      </trkpt>
      <trkpt lat="48.24788689613342" lon="17.127234935760498">
        <ele>445.29</ele>
        <time>2024-10-10T10:15:04.233Z</time>
      </trkpt>
      <trkpt lat="48.247854709625244" lon="17.127331495285034">
        <ele>446.21</ele>
        <time>2024-10-10T10:15:05.994Z</time>
      </trkpt>
      <trkpt lat="48.24785898439586" lon="17.127389665693045">
        <ele>446.92</ele>
        <time>2024-10-10T10:15:07.756Z</time>
      </trkpt>
      <trkpt lat="48.24787616729736" lon="17.127621173858643">
        <ele>448.38</ele>
        <time>2024-10-10T10:15:09.521Z</time>
      </trkpt>
      <trkpt lat="48.24782771989703" lon="17.127879252657294">
        <ele>449.04</ele>
        <time>2024-10-10T10:15:11.290Z</time>
      </trkpt>
      <trkpt lat="48.24777960777283" lon="17.128136157989502">
        <ele>449.93</ele>
        <time>2024-10-10T10:15:13.063Z</time>
      </trkpt>
      <trkpt lat="48.24776887893677" lon="17.128340005874634">
        <ele>450.58</ele>
        <time>2024-10-10T10:15:14.838Z</time>
      </trkpt>
      <trkpt lat="48.24774750508368" lon="17.128522396087646">
        <ele>451.05</ele>
        <time>2024-10-10T10:15:16.616Z</time>
      </trkpt>
      <trkpt lat="48.247840628027916" lon="17.128812661394477">
        <ele>451.47</ele>
        <time>2024-10-10T10:15:18.398Z</time>
      </trkpt>
      <trkpt lat="48.24793375097215" lon="17.129102926701307">
        <ele>451.82</ele>
        <time>2024-10-10T10:15:20.184Z</time>
      </trkpt>
      <trkpt lat="48.2480263710022" lon="17.12939143180847">
        <ele>452.19</ele>
        <time>2024-10-10T10:15:21.975Z</time>
      </trkpt>
      <trkpt lat="48.24826240539551" lon="17.12945580482483">
        <ele>452.3</ele>
        <time>2024-10-10T10:15:23.770Z</time>
      </trkpt>
      <trkpt lat="48.24829467572272" lon="17.129498720169067">
        <ele>452.62</ele>
        <time>2024-10-10T10:15:25.566Z</time>
      </trkpt>
      <trkpt lat="48.24843406677246" lon="17.129627466201782">
        <ele>453.05</ele>
        <time>2024-10-10T10:15:27.366Z</time>
      </trkpt>
      <trkpt lat="48.248562812805176" lon="17.1296489238739">
        <ele>453.61</ele>
        <time>2024-10-10T10:15:29.168Z</time>
      </trkpt>
      <trkpt lat="48.24872902594507" lon="17.1296542044729">
        <ele>454.44</ele>
        <time>2024-10-10T10:15:30.974Z</time>
      </trkpt>
      <trkpt lat="48.248895490542054" lon="17.12965965270996">
        <ele>455.46</ele>
        <time>2024-10-10T10:15:32.783Z</time>
      </trkpt>
      <trkpt lat="48.249077796936035" lon="17.1297025680542">
        <ele>456.68</ele>
        <time>2024-10-10T10:15:34.596Z</time>
      </trkpt>
      <trkpt lat="48.24921727180481" lon="17.129831314086914">
        <ele>457.96</ele>
        <time>2024-10-10T10:15:36.412Z</time>
      </trkpt>
      <trkpt lat="48.249346017837524" lon="17.129992246627808">
        <ele>459.3</ele>
        <time>2024-10-10T10:15:38.231Z</time>
      </trkpt>
      <trkpt lat="48.24941039085388" lon="17.13017463684082">
        <ele>460.61</ele>
        <time>2024-10-10T10:15:40.053Z</time>
      </trkpt>
      <trkpt lat="48.249431848526" lon="17.130335569381714">
        <ele>462.01</ele>
        <time>2024-10-10T10:15:41.877Z</time>
      </trkpt>
      <trkpt lat="48.24944257736206" lon="17.130560874938965">
        <ele>463.42</ele>
        <time>2024-10-10T10:15:43.704Z</time>
      </trkpt>
      <trkpt lat="48.249431848526" lon="17.130839824676514">
        <ele>464.81</ele>
        <time>2024-10-10T10:15:45.535Z</time>
      </trkpt>
      <trkpt lat="48.24947476387024" lon="17.13091492652893">
        <ele>466.14</ele>
        <time>2024-10-10T10:15:47.367Z</time>
      </trkpt>
      <trkpt lat="48.249571323394775" lon="17.131011486053467">
        <ele>467.51</ele>
        <time>2024-10-10T10:15:49.202Z</time>
      </trkpt>
      <trkpt lat="48.249592781066895" lon="17.131043672561646">
        <ele>468.69</ele>
        <time>2024-10-10T10:15:51.037Z</time>
      </trkpt>
      <trkpt lat="48.24963569641113" lon="17.131333351135254">
        <ele>469.91</ele>
        <time>2024-10-10T10:15:52.876Z</time>
      </trkpt>
      <trkpt lat="48.24963569641113" lon="17.131483554840088">
        <ele>470.97</ele>
        <time>2024-10-10T10:15:54.717Z</time>
      </trkpt>
      <trkpt lat="48.24970006942749" lon="17.131633758544922">
        <ele>472.03</ele>
        <time>2024-10-10T10:15:56.560Z</time>
      </trkpt>
      <trkpt lat="48.24970006942749" lon="17.131805419921875">
        <ele>472.91</ele>
        <time>2024-10-10T10:15:58.406Z</time>
      </trkpt>
      <trkpt lat="48.24963569641113" lon="17.13218092918396">
        <ele>473.8</ele>
        <time>2024-10-10T10:16:00.257Z</time>
      </trkpt>
      <trkpt lat="48.249603509902954" lon="17.132266759872437">
        <ele>474.46</ele>
        <time>2024-10-10T10:16:02.109Z</time>
      </trkpt>
      <trkpt lat="48.24949622154236" lon="17.13240623474121">
        <ele>474.95</ele>
        <time>2024-10-10T10:16:03.964Z</time>
      </trkpt>
      <trkpt lat="48.24944257736206" lon="17.132610082626343">
        <ele>475.31</ele>
        <time>2024-10-10T10:16:05.822Z</time>
      </trkpt>
      <trkpt lat="48.249356746673584" lon="17.132771015167236">
        <ele>475.53</ele>
        <time>2024-10-10T10:16:07.683Z</time>
      </trkpt>
      <trkpt lat="48.249324560165405" lon="17.132867574691772">
        <ele>475.67</ele>
        <time>2024-10-10T10:16:09.545Z</time>
      </trkpt>
      <trkpt lat="48.249324560165405" lon="17.13316798210144">
        <ele>475.85</ele>
        <time>2024-10-10T10:16:11.411Z</time>
      </trkpt>
      <trkpt lat="48.249233113601804" lon="17.13338289409876">
        <ele>475.66</ele>
        <time>2024-10-10T10:16:13.281Z</time>
      </trkpt>
      <trkpt lat="48.24914216995239" lon="17.133597135543823">
        <ele>475.34</ele>
        <time>2024-10-10T10:16:15.154Z</time>
      </trkpt>
      <trkpt lat="48.249045610427856" lon="17.13371515274048">
        <ele>474.85</ele>
        <time>2024-10-10T10:16:17.030Z</time>
      </trkpt>
      <trkpt lat="48.24891686439514" lon="17.134015560150146">
        <ele>474.44</ele>
        <time>2024-10-10T10:16:18.910Z</time>
      </trkpt>
      <trkpt lat="48.24889540672302" lon="17.134090662002563">
        <ele>474.06</ele>
        <time>2024-10-10T10:16:20.791Z</time>
      </trkpt>
      <trkpt lat="48.24889540672302" lon="17.13421940803528">
        <ele>473.69</ele>
        <time>2024-10-10T10:16:22.674Z</time>
      </trkpt>
      <trkpt lat="48.248831033706665" lon="17.13442325592041">
        <ele>473.25</ele>
        <time>2024-10-10T10:16:24.560Z</time>
      </trkpt>
      <trkpt lat="48.248809576034546" lon="17.134519815444946">
        <ele>472.94</ele>
        <time>2024-10-10T10:16:26.448Z</time>
      </trkpt>
      <trkpt lat="48.24875593185425" lon="17.13465929031372">
        <ele>472.65</ele>
        <time>2024-10-10T10:16:28.338Z</time>
      </trkpt>
      <trkpt lat="48.24876666069031" lon="17.134745121002197">
        <ele>472.57</ele>
        <time>2024-10-10T10:16:30.229Z</time>
      </trkpt>
      <trkpt lat="48.248798847198486" lon="17.134798765182495">
        <ele>472.62</ele>
        <time>2024-10-10T10:16:32.121Z</time>
      </trkpt>
      <trkpt lat="48.2488739490509" lon="17.134830951690674">
        <ele>472.82</ele>
        <time>2024-10-10T10:16:34.014Z</time>
      </trkpt>
      <trkpt lat="48.24888467788696" lon="17.134873867034912">
        <ele>472.98</ele>
        <time>2024-10-10T10:16:35.908Z</time>
      </trkpt>
      <trkpt lat="48.248852491378784" lon="17.135034799575806">
        <ele>473.23</ele>
        <time>2024-10-10T10:16:37.804Z</time>
      </trkpt>
      <trkpt lat="48.248852491378784" lon="17.135292291641235">
        <ele>473.71</ele>
        <time>2024-10-10T10:16:39.704Z</time>
      </trkpt>
      <trkpt lat="48.248809576034546" lon="17.13543176651001">
        <ele>474.04</ele>
        <time>2024-10-10T10:16:41.606Z</time>
      </trkpt>
      <trkpt lat="48.24875593185425" lon="17.135539054870605">
        <ele>474.42</ele>
        <time>2024-10-10T10:16:43.510Z</time>
      </trkpt>
      <trkpt lat="48.24872374534607" lon="17.135581970214844">
        <ele>474.93</ele>
        <time>2024-10-10T10:16:45.414Z</time>
      </trkpt>
      <trkpt lat="48.2486860267818" lon="17.135840049013495">
        <ele>475.7</ele>
        <time>2024-10-10T10:16:47.322Z</time>
      </trkpt>
      <trkpt lat="48.24864864349365" lon="17.136096954345703">
        <ele>476.57</ele>
        <time>2024-10-10T10:16:49.233Z</time>
      </trkpt>
      <trkpt lat="48.2486271020025" lon="17.136451927945018">
        <ele>477.64</ele>
        <time>2024-10-10T10:16:51.149Z</time>
      </trkpt>
      <trkpt lat="48.248605728149414" lon="17.136805057525635">
        <ele>478.61</ele>
        <time>2024-10-10T10:16:53.070Z</time>
      </trkpt>
      <trkpt lat="48.248584270477295" lon="17.13696599006653">
        <ele>479.26</ele>
        <time>2024-10-10T10:16:54.993Z</time>
      </trkpt>
      <trkpt lat="48.248616456985474" lon="17.13716983795166">
        <ele>479.94</ele>
        <time>2024-10-10T10:16:56.919Z</time>
      </trkpt>
      <trkpt lat="48.248616456985474" lon="17.13757828809321">
        <ele>480.44</ele>
        <time>2024-10-10T10:16:58.850Z</time>
      </trkpt>
      <trkpt lat="48.248616456985474" lon="17.13769555091858">
        <ele>480.92</ele>
        <time>2024-10-10T10:17:00.783Z</time>
      </trkpt>
      <trkpt lat="48.248594999313354" lon="17.137867212295532">
        <ele>481.01</ele>
        <time>2024-10-10T10:17:02.718Z</time>
      </trkpt>
      <trkpt lat="48.24851989746094" lon="17.138049602508545">
        <ele>481.0</ele>
        <time>2024-10-10T10:17:04.656Z</time>
      </trkpt>
      <trkpt lat="48.2484769821167" lon="17.13819980621338">
        <ele>481.14</ele>
        <time>2024-10-10T10:17:06.596Z</time>
      </trkpt>
      <trkpt lat="48.24839115142822" lon="17.138285636901855">
        <ele>481.09</ele>
        <time>2024-10-10T10:17:08.538Z</time>
      </trkpt>
      <trkpt lat="48.24840188026428" lon="17.138350009918213">
        <ele>481.29</ele>
        <time>2024-10-10T10:17:10.481Z</time>
      </trkpt>
      <trkpt lat="48.2484233379364" lon="17.13838219642639">
        <ele>481.62</ele>
        <time>2024-10-10T10:17:12.425Z</time>
      </trkpt>
      <trkpt lat="48.24846625328064" lon="17.138360738754272">
        <ele>482.05</ele>
        <time>2024-10-10T10:17:14.370Z</time>
      </trkpt>
      <trkpt lat="48.2484769821167" lon="17.13839292526245">
        <ele>482.52</ele>
        <time>2024-10-10T10:17:16.315Z</time>
      </trkpt>
      <trkpt lat="48.24846625328064" lon="17.13862895965576">
        <ele>483.16</ele>
        <time>2024-10-10T10:17:18.263Z</time>
      </trkpt>
      <trkpt lat="48.24849843978882" lon="17.138736248016357">
        <ele>483.84</ele>
        <time>2024-10-10T10:17:20.213Z</time>
      </trkpt>
      <trkpt lat="48.24850916862488" lon="17.13889718055725">
        <ele>484.51</ele>
        <time>2024-10-10T10:17:22.165Z</time>
      </trkpt>
      <trkpt lat="48.248552083969116" lon="17.138993740081787">
        <ele>485.19</ele>
        <time>2024-10-10T10:17:24.119Z</time>
      </trkpt>
      <trkpt lat="48.248562812805176" lon="17.1391761302948">
        <ele>485.81</ele>
        <time>2024-10-10T10:17:26.075Z</time>
      </trkpt>
      <trkpt lat="48.24862718582153" lon="17.139487266540527">
        <ele>486.5</ele>
        <time>2024-10-10T10:17:28.036Z</time>
      </trkpt>
      <trkpt lat="48.248562812805176" lon="17.139734029769897">
        <ele>486.93</ele>
        <time>2024-10-10T10:17:30.000Z</time>
      </trkpt>
      <trkpt lat="48.248530626297" lon="17.13991641998291">
        <ele>487.43</ele>
        <time>2024-10-10T10:17:31.967Z</time>
      </trkpt>
      <trkpt lat="48.24846625328064" lon="17.14015245437622">
        <ele>488.1</ele>
        <time>2024-10-10T10:17:33.937Z</time>
      </trkpt>
      <trkpt lat="48.24844479560852" lon="17.140313386917114">
        <ele>488.81</ele>
        <time>2024-10-10T10:17:35.909Z</time>
      </trkpt>
      <trkpt lat="48.24845552444458" lon="17.14038848876953">
        <ele>489.56</ele>
        <time>2024-10-10T10:17:37.882Z</time>
      </trkpt>
      <trkpt lat="48.248530626297" lon="17.14045286178589">
        <ele>490.45</ele>
        <time>2024-10-10T10:17:39.857Z</time>
      </trkpt>
      <trkpt lat="48.248552083969116" lon="17.14046359062195">
        <ele>491.32</ele>
        <time>2024-10-10T10:17:41.832Z</time>
      </trkpt>
      <trkpt lat="48.24863791465759" lon="17.14042067527771">
        <ele>492.35</ele>
        <time>2024-10-10T10:17:43.809Z</time>
      </trkpt>
      <trkpt lat="48.24868083000183" lon="17.14045286178589">
        <ele>493.42</ele>
        <time>2024-10-10T10:17:45.787Z</time>
      </trkpt>
      <trkpt lat="48.24873447418213" lon="17.140603065490723">
        <ele>494.67</ele>
        <time>2024-10-10T10:17:47.767Z</time>
      </trkpt>
      <trkpt lat="48.248809576034546" lon="17.14066743850708">
        <ele>495.95</ele>
        <time>2024-10-10T10:17:49.749Z</time>
      </trkpt>
      <trkpt lat="48.248841762542725" lon="17.14069962501526">
        <ele>497.16</ele>
        <time>2024-10-10T10:17:51.732Z</time>
      </trkpt>
      <trkpt lat="48.248852491378784" lon="17.140763998031616">
        <ele>498.44</ele>
        <time>2024-10-10T10:17:53.716Z</time>
      </trkpt>
      <trkpt lat="48.248820304870605" lon="17.14089274406433">
        <ele>499.76</ele>
        <time>2024-10-10T10:17:55.702Z</time>
      </trkpt>
      <trkpt lat="48.248820304870605" lon="17.140978574752808">
        <ele>501.17</ele>
        <time>2024-10-10T10:17:57.689Z</time>
      </trkpt>
      <trkpt lat="48.248852491378784" lon="17.14115023612976">
        <ele>502.8</ele>
        <time>2024-10-10T10:17:59.678Z</time>
      </trkpt>
      <trkpt lat="48.24900269508362" lon="17.141246795654297">
        <ele>504.54</ele>
        <time>2024-10-10T10:18:01.670Z</time>
      </trkpt>
      <trkpt lat="48.24913144111633" lon="17.14137554168701">
        <ele>506.14</ele>
        <time>2024-10-10T10:18:03.666Z</time>
      </trkpt>
      <trkpt lat="48.24921727180481" lon="17.14140772819519">
        <ele>507.51</ele>
        <time>2024-10-10T10:18:05.663Z</time>
      </trkpt>
      <trkpt lat="48.24931391514838" lon="17.141595734283328">
        <ele>508.94</ele>
        <time>2024-10-10T10:18:07.664Z</time>
      </trkpt>
      <trkpt lat="48.24941039085388" lon="17.141783237457275">
        <ele>510.37</ele>
        <time>2024-10-10T10:18:09.668Z</time>
      </trkpt>
      <trkpt lat="48.249592781066895" lon="17.141976356506348">
        <ele>511.73</ele>
        <time>2024-10-10T10:18:11.676Z</time>
      </trkpt>
      <trkpt lat="48.249603509902954" lon="17.142019271850586">
        <ele>512.79</ele>
        <time>2024-10-10T10:18:13.685Z</time>
      </trkpt>
      <trkpt lat="48.249603509902954" lon="17.142030000686646">
        <ele>513.75</ele>
        <time>2024-10-10T10:18:15.694Z</time>
      </trkpt>
      <trkpt lat="48.24945850297809" lon="17.14221792295575">
        <ele>514.67</ele>
        <time>2024-10-10T10:18:17.707Z</time>
      </trkpt>
      <trkpt lat="48.249313831329346" lon="17.14240550994873">
        <ele>515.67</ele>
        <time>2024-10-10T10:18:19.724Z</time>
      </trkpt>
      <trkpt lat="48.24926018714905" lon="17.142502069473267">
        <ele>516.24</ele>
        <time>2024-10-10T10:18:21.742Z</time>
      </trkpt>
      <trkpt lat="48.24913144111633" lon="17.142856121063232">
        <ele>516.79</ele>
        <time>2024-10-10T10:18:23.766Z</time>
      </trkpt>
      <trkpt lat="48.249029349535704" lon="17.1430494915694">
        <ele>516.61</ele>
        <time>2024-10-10T10:18:25.793Z</time>
      </trkpt>
      <trkpt lat="48.24892767705023" lon="17.143242359161377">
        <ele>516.23</ele>
        <time>2024-10-10T10:18:27.823Z</time>
      </trkpt>
      <trkpt lat="48.24888006784022" lon="17.143326848745346">
        <ele>516.05</ele>
        <time>2024-10-10T10:18:29.855Z</time>
      </trkpt>
    </trkseg>
  </trk>
</gpx>
